<?xml version="1.0" encoding="UTF-8" standalone="no" ?>
<gpx xmlns="http://www.topografix.com/GPX/1/1" xmlns:xsi="http://www.w3.org/2001/XMLSchema-instance" xsi:schemaLocation="http://www.topografix.com/GPX/1/1 http://www.topografix.com/GPX/1/1/gpx.xsd" version="1.1" creator="VisuGPX - https://www.visugpx.com">
  <metadata>
    <name>Plazac Cyclisme</name>
  </metadata>
  <trk>
    <name><![CDATA[Plazac Cyclisme]]></name>
    <extensions>
      <line xmlns="http://www.topografix.com/GPX/gpx_style/0/2">
        <color>0000FF</color>
        <width>4</width>
      </line>
    </extensions>
    <trkseg>
      <trkpt lat="45.03422" lon="1.04799">
        <ele>104.2</ele>
        <time>2022-08-25T08:36:48Z</time>
      </trkpt>
      <trkpt lat="45.03472" lon="1.04801">
        <ele>105.6</ele>
        <time>2022-08-25T08:37:04Z</time>
      </trkpt>
      <trkpt lat="45.03526" lon="1.04817">
        <ele>106.2</ele>
        <time>2022-08-25T08:37:19Z</time>
      </trkpt>
      <trkpt lat="45.03575" lon="1.04833">
        <ele>106.6</ele>
        <time>2022-08-25T08:37:35Z</time>
      </trkpt>
      <trkpt lat="45.03628" lon="1.0486">
        <ele>107.2</ele>
        <time>2022-08-25T08:37:53Z</time>
      </trkpt>
      <trkpt lat="45.03659" lon="1.04871">
        <ele>107.8</ele>
        <time>2022-08-25T08:38:03Z</time>
      </trkpt>
      <trkpt lat="45.03712" lon="1.04889">
        <ele>108.8</ele>
        <time>2022-08-25T08:38:20Z</time>
      </trkpt>
      <trkpt lat="45.03734" lon="1.04902">
        <ele>109.8</ele>
        <time>2022-08-25T08:38:30Z</time>
      </trkpt>
      <trkpt lat="45.03739" lon="1.04903">
        <ele>109.8</ele>
        <time>2022-08-25T08:39:00Z</time>
      </trkpt>
      <trkpt lat="45.03748" lon="1.04908">
        <ele>111</ele>
        <time>2022-08-25T08:39:05Z</time>
      </trkpt>
      <trkpt lat="45.03775" lon="1.04924">
        <ele>112</ele>
        <time>2022-08-25T08:39:18Z</time>
      </trkpt>
      <trkpt lat="45.03795" lon="1.04933">
        <ele>113.2</ele>
        <time>2022-08-25T08:39:27Z</time>
      </trkpt>
      <trkpt lat="45.03819" lon="1.0494">
        <ele>114.4</ele>
        <time>2022-08-25T08:39:37Z</time>
      </trkpt>
      <trkpt lat="45.03847" lon="1.04942">
        <ele>115.4</ele>
        <time>2022-08-25T08:39:49Z</time>
      </trkpt>
      <trkpt lat="45.03902" lon="1.04936">
        <ele>115</ele>
        <time>2022-08-25T08:40:11Z</time>
      </trkpt>
      <trkpt lat="45.03938" lon="1.04921">
        <ele>114.2</ele>
        <time>2022-08-25T08:40:22Z</time>
      </trkpt>
      <trkpt lat="45.03969" lon="1.04916">
        <ele>113.4</ele>
        <time>2022-08-25T08:40:29Z</time>
      </trkpt>
      <trkpt lat="45.03983" lon="1.0492">
        <ele>113</ele>
        <time>2022-08-25T08:40:32Z</time>
      </trkpt>
      <trkpt lat="45.04037" lon="1.04932">
        <ele>113.4</ele>
        <time>2022-08-25T08:40:46Z</time>
      </trkpt>
      <trkpt lat="45.04068" lon="1.0493">
        <ele>114.2</ele>
        <time>2022-08-25T08:40:56Z</time>
      </trkpt>
      <trkpt lat="45.04116" lon="1.04926">
        <ele>115.4</ele>
        <time>2022-08-25T08:41:12Z</time>
      </trkpt>
      <trkpt lat="45.04156" lon="1.04917">
        <ele>116.4</ele>
        <time>2022-08-25T08:41:26Z</time>
      </trkpt>
      <trkpt lat="45.04166" lon="1.04916">
        <ele>117.8</ele>
        <time>2022-08-25T08:41:32Z</time>
      </trkpt>
      <trkpt lat="45.04172" lon="1.04914">
        <ele>118.8</ele>
        <time>2022-08-25T08:41:36Z</time>
      </trkpt>
      <trkpt lat="45.04197" lon="1.04921">
        <ele>120</ele>
        <time>2022-08-25T08:41:51Z</time>
      </trkpt>
      <trkpt lat="45.04214" lon="1.04926">
        <ele>121</ele>
        <time>2022-08-25T08:42:01Z</time>
      </trkpt>
      <trkpt lat="45.04229" lon="1.04934">
        <ele>122.2</ele>
        <time>2022-08-25T08:42:11Z</time>
      </trkpt>
      <trkpt lat="45.04249" lon="1.04944">
        <ele>123.4</ele>
        <time>2022-08-25T08:42:23Z</time>
      </trkpt>
      <trkpt lat="45.04269" lon="1.04955">
        <ele>124.4</ele>
        <time>2022-08-25T08:42:36Z</time>
      </trkpt>
      <trkpt lat="45.04299" lon="1.04971">
        <ele>125.4</ele>
        <time>2022-08-25T08:42:53Z</time>
      </trkpt>
      <trkpt lat="45.0435" lon="1.04998">
        <ele>125.4</ele>
        <time>2022-08-25T08:43:17Z</time>
      </trkpt>
      <trkpt lat="45.0439" lon="1.04994">
        <ele>126.4</ele>
        <time>2022-08-25T08:43:35Z</time>
      </trkpt>
      <trkpt lat="45.04412" lon="1.04996">
        <ele>127.4</ele>
        <time>2022-08-25T08:43:47Z</time>
      </trkpt>
      <trkpt lat="45.04467" lon="1.05011">
        <ele>128</ele>
        <time>2022-08-25T08:44:09Z</time>
      </trkpt>
      <trkpt lat="45.04518" lon="1.05028">
        <ele>128.6</ele>
        <time>2022-08-25T08:44:29Z</time>
      </trkpt>
      <trkpt lat="45.04535" lon="1.05036">
        <ele>129.6</ele>
        <time>2022-08-25T08:44:37Z</time>
      </trkpt>
      <trkpt lat="45.04549" lon="1.05038">
        <ele>130.6</ele>
        <time>2022-08-25T08:44:45Z</time>
      </trkpt>
      <trkpt lat="45.04566" lon="1.05046">
        <ele>131.6</ele>
        <time>2022-08-25T08:44:55Z</time>
      </trkpt>
      <trkpt lat="45.04573" lon="1.05064">
        <ele>132.6</ele>
        <time>2022-08-25T08:45:03Z</time>
      </trkpt>
      <trkpt lat="45.04606" lon="1.0513">
        <ele>131.8</ele>
        <time>2022-08-25T08:45:29Z</time>
      </trkpt>
      <trkpt lat="45.0461" lon="1.05138">
        <ele>131.8</ele>
        <time>2022-08-25T08:45:31Z</time>
      </trkpt>
      <trkpt lat="45.04628" lon="1.0514">
        <ele>132.2</ele>
        <time>2022-08-25T08:45:35Z</time>
      </trkpt>
      <trkpt lat="45.04683" lon="1.05144">
        <ele>133.8</ele>
        <time>2022-08-25T08:45:50Z</time>
      </trkpt>
      <trkpt lat="45.0469" lon="1.05145">
        <ele>134.8</ele>
        <time>2022-08-25T08:45:55Z</time>
      </trkpt>
      <trkpt lat="45.04694" lon="1.05154">
        <ele>136</ele>
        <time>2022-08-25T08:46:01Z</time>
      </trkpt>
      <trkpt lat="45.04696" lon="1.05163">
        <ele>136.8</ele>
        <time>2022-08-25T08:46:06Z</time>
      </trkpt>
      <trkpt lat="45.04699" lon="1.05169">
        <ele>138</ele>
        <time>2022-08-25T08:46:11Z</time>
      </trkpt>
      <trkpt lat="45.04703" lon="1.05178">
        <ele>139</ele>
        <time>2022-08-25T08:46:16Z</time>
      </trkpt>
      <trkpt lat="45.04706" lon="1.05186">
        <ele>140.4</ele>
        <time>2022-08-25T08:46:22Z</time>
      </trkpt>
      <trkpt lat="45.04711" lon="1.05193">
        <ele>141.4</ele>
        <time>2022-08-25T08:46:28Z</time>
      </trkpt>
      <trkpt lat="45.04723" lon="1.05204">
        <ele>142.4</ele>
        <time>2022-08-25T08:46:38Z</time>
      </trkpt>
      <trkpt lat="45.04736" lon="1.05215">
        <ele>143.4</ele>
        <time>2022-08-25T08:46:49Z</time>
      </trkpt>
      <trkpt lat="45.0475" lon="1.05227">
        <ele>144.6</ele>
        <time>2022-08-25T08:47:01Z</time>
      </trkpt>
      <trkpt lat="45.04763" lon="1.05238">
        <ele>145.6</ele>
        <time>2022-08-25T08:47:12Z</time>
      </trkpt>
      <trkpt lat="45.0477" lon="1.05248">
        <ele>146.6</ele>
        <time>2022-08-25T08:47:20Z</time>
      </trkpt>
      <trkpt lat="45.04777" lon="1.05249">
        <ele>147.6</ele>
        <time>2022-08-25T08:47:27Z</time>
      </trkpt>
      <trkpt lat="45.04778" lon="1.05248">
        <ele>147.8</ele>
        <time>2022-08-25T08:47:28Z</time>
      </trkpt>
      <trkpt lat="45.04775" lon="1.05239">
        <ele>148.8</ele>
        <time>2022-08-25T08:47:34Z</time>
      </trkpt>
      <trkpt lat="45.04771" lon="1.05226">
        <ele>150</ele>
        <time>2022-08-25T08:47:42Z</time>
      </trkpt>
      <trkpt lat="45.04768" lon="1.05215">
        <ele>151</ele>
        <time>2022-08-25T08:47:54Z</time>
      </trkpt>
      <trkpt lat="45.04767" lon="1.05215">
        <ele>152</ele>
        <time>2022-08-25T08:52:16Z</time>
      </trkpt>
      <trkpt lat="45.0476" lon="1.05208">
        <ele>153.2</ele>
        <time>2022-08-25T08:53:59Z</time>
      </trkpt>
      <trkpt lat="45.04756" lon="1.05194">
        <ele>154.4</ele>
        <time>2022-08-25T08:54:09Z</time>
      </trkpt>
      <trkpt lat="45.04755" lon="1.05183">
        <ele>155.4</ele>
        <time>2022-08-25T08:54:16Z</time>
      </trkpt>
      <trkpt lat="45.04754" lon="1.05174">
        <ele>156.4</ele>
        <time>2022-08-25T08:54:22Z</time>
      </trkpt>
      <trkpt lat="45.04755" lon="1.05159">
        <ele>157.6</ele>
        <time>2022-08-25T08:54:32Z</time>
      </trkpt>
      <trkpt lat="45.04755" lon="1.05146">
        <ele>158.4</ele>
        <time>2022-08-25T08:54:40Z</time>
      </trkpt>
      <trkpt lat="45.04755" lon="1.05145">
        <ele>158.6</ele>
        <time>2022-08-25T08:54:41Z</time>
      </trkpt>
      <trkpt lat="45.04759" lon="1.0513">
        <ele>159.6</ele>
        <time>2022-08-25T08:54:51Z</time>
      </trkpt>
      <trkpt lat="45.04764" lon="1.05117">
        <ele>160.8</ele>
        <time>2022-08-25T08:55:00Z</time>
      </trkpt>
      <trkpt lat="45.04768" lon="1.05107">
        <ele>161.6</ele>
        <time>2022-08-25T08:55:08Z</time>
      </trkpt>
      <trkpt lat="45.0477" lon="1.05103">
        <ele>162.2</ele>
        <time>2022-08-25T08:55:12Z</time>
      </trkpt>
      <trkpt lat="45.04776" lon="1.05094">
        <ele>162.8</ele>
        <time>2022-08-25T08:55:20Z</time>
      </trkpt>
      <trkpt lat="45.04785" lon="1.05081">
        <ele>164</ele>
        <time>2022-08-25T08:55:32Z</time>
      </trkpt>
      <trkpt lat="45.04795" lon="1.05068">
        <ele>165</ele>
        <time>2022-08-25T08:55:45Z</time>
      </trkpt>
      <trkpt lat="45.04804" lon="1.0506">
        <ele>166.2</ele>
        <time>2022-08-25T08:55:54Z</time>
      </trkpt>
      <trkpt lat="45.04813" lon="1.05054">
        <ele>167.4</ele>
        <time>2022-08-25T08:56:02Z</time>
      </trkpt>
      <trkpt lat="45.0482" lon="1.05048">
        <ele>168.2</ele>
        <time>2022-08-25T08:56:10Z</time>
      </trkpt>
      <trkpt lat="45.04828" lon="1.05041">
        <ele>169.6</ele>
        <time>2022-08-25T08:56:19Z</time>
      </trkpt>
      <trkpt lat="45.04837" lon="1.05037">
        <ele>170.6</ele>
        <time>2022-08-25T08:56:27Z</time>
      </trkpt>
      <trkpt lat="45.04846" lon="1.05031">
        <ele>171.6</ele>
        <time>2022-08-25T08:56:35Z</time>
      </trkpt>
      <trkpt lat="45.04855" lon="1.05024">
        <ele>172.6</ele>
        <time>2022-08-25T08:56:44Z</time>
      </trkpt>
      <trkpt lat="45.04865" lon="1.05018">
        <ele>173.8</ele>
        <time>2022-08-25T08:56:54Z</time>
      </trkpt>
      <trkpt lat="45.04872" lon="1.0501">
        <ele>174.8</ele>
        <time>2022-08-25T08:57:02Z</time>
      </trkpt>
      <trkpt lat="45.04879" lon="1.05006">
        <ele>175.8</ele>
        <time>2022-08-25T08:57:09Z</time>
      </trkpt>
      <trkpt lat="45.04884" lon="1.05002">
        <ele>177</ele>
        <time>2022-08-25T08:57:15Z</time>
      </trkpt>
      <trkpt lat="45.04889" lon="1.04999">
        <ele>178</ele>
        <time>2022-08-25T08:57:21Z</time>
      </trkpt>
      <trkpt lat="45.04895" lon="1.04996">
        <ele>179</ele>
        <time>2022-08-25T08:57:27Z</time>
      </trkpt>
      <trkpt lat="45.04904" lon="1.04994">
        <ele>180</ele>
        <time>2022-08-25T08:57:34Z</time>
      </trkpt>
      <trkpt lat="45.04911" lon="1.0499">
        <ele>181</ele>
        <time>2022-08-25T08:57:41Z</time>
      </trkpt>
      <trkpt lat="45.04918" lon="1.04985">
        <ele>182.2</ele>
        <time>2022-08-25T08:57:49Z</time>
      </trkpt>
      <trkpt lat="45.04927" lon="1.0498">
        <ele>183.2</ele>
        <time>2022-08-25T08:57:57Z</time>
      </trkpt>
      <trkpt lat="45.04933" lon="1.04977">
        <ele>184.2</ele>
        <time>2022-08-25T08:58:04Z</time>
      </trkpt>
      <trkpt lat="45.04941" lon="1.04974">
        <ele>185.4</ele>
        <time>2022-08-25T08:58:13Z</time>
      </trkpt>
      <trkpt lat="45.04949" lon="1.04969">
        <ele>186.6</ele>
        <time>2022-08-25T08:58:21Z</time>
      </trkpt>
      <trkpt lat="45.04956" lon="1.04968">
        <ele>187.6</ele>
        <time>2022-08-25T08:58:27Z</time>
      </trkpt>
      <trkpt lat="45.04963" lon="1.04966">
        <ele>188.6</ele>
        <time>2022-08-25T08:58:33Z</time>
      </trkpt>
      <trkpt lat="45.0497" lon="1.04963">
        <ele>190</ele>
        <time>2022-08-25T08:58:40Z</time>
      </trkpt>
      <trkpt lat="45.0498" lon="1.0496">
        <ele>191.2</ele>
        <time>2022-08-25T08:58:49Z</time>
      </trkpt>
      <trkpt lat="45.0499" lon="1.04957">
        <ele>192.2</ele>
        <time>2022-08-25T08:58:57Z</time>
      </trkpt>
      <trkpt lat="45.05006" lon="1.04951">
        <ele>193.2</ele>
        <time>2022-08-25T08:59:07Z</time>
      </trkpt>
      <trkpt lat="45.05029" lon="1.04945">
        <ele>194.2</ele>
        <time>2022-08-25T08:59:21Z</time>
      </trkpt>
      <trkpt lat="45.05071" lon="1.04929">
        <ele>195.2</ele>
        <time>2022-08-25T08:59:40Z</time>
      </trkpt>
      <trkpt lat="45.05125" lon="1.04937">
        <ele>196</ele>
        <time>2022-08-25T08:59:58Z</time>
      </trkpt>
      <trkpt lat="45.05129" lon="1.04938">
        <ele>196.4</ele>
        <time>2022-08-25T09:00:00Z</time>
      </trkpt>
      <trkpt lat="45.05141" lon="1.04947">
        <ele>197.6</ele>
        <time>2022-08-25T09:00:08Z</time>
      </trkpt>
      <trkpt lat="45.0515" lon="1.04955">
        <ele>198.6</ele>
        <time>2022-08-25T09:00:15Z</time>
      </trkpt>
      <trkpt lat="45.05156" lon="1.04969">
        <ele>199.6</ele>
        <time>2022-08-25T09:00:22Z</time>
      </trkpt>
      <trkpt lat="45.05152" lon="1.04978">
        <ele>200.8</ele>
        <time>2022-08-25T09:00:28Z</time>
      </trkpt>
      <trkpt lat="45.05143" lon="1.04983">
        <ele>201.8</ele>
        <time>2022-08-25T09:00:37Z</time>
      </trkpt>
      <trkpt lat="45.0513" lon="1.04986">
        <ele>202.8</ele>
        <time>2022-08-25T09:00:47Z</time>
      </trkpt>
      <trkpt lat="45.0512" lon="1.04992">
        <ele>204</ele>
        <time>2022-08-25T09:00:56Z</time>
      </trkpt>
      <trkpt lat="45.0511" lon="1.04999">
        <ele>205</ele>
        <time>2022-08-25T09:01:05Z</time>
      </trkpt>
      <trkpt lat="45.05099" lon="1.05008">
        <ele>206.2</ele>
        <time>2022-08-25T09:01:15Z</time>
      </trkpt>
      <trkpt lat="45.05089" lon="1.05018">
        <ele>207.2</ele>
        <time>2022-08-25T09:01:24Z</time>
      </trkpt>
      <trkpt lat="45.05079" lon="1.05034">
        <ele>208.2</ele>
        <time>2022-08-25T09:01:33Z</time>
      </trkpt>
      <trkpt lat="45.05073" lon="1.05052">
        <ele>209.2</ele>
        <time>2022-08-25T09:01:41Z</time>
      </trkpt>
      <trkpt lat="45.05076" lon="1.05069">
        <ele>210.4</ele>
        <time>2022-08-25T09:01:49Z</time>
      </trkpt>
      <trkpt lat="45.05087" lon="1.05095">
        <ele>211.4</ele>
        <time>2022-08-25T09:02:01Z</time>
      </trkpt>
      <trkpt lat="45.05098" lon="1.05128">
        <ele>212.4</ele>
        <time>2022-08-25T09:02:14Z</time>
      </trkpt>
      <trkpt lat="45.05104" lon="1.05149">
        <ele>213.6</ele>
        <time>2022-08-25T09:02:23Z</time>
      </trkpt>
      <trkpt lat="45.05117" lon="1.05181">
        <ele>214.6</ele>
        <time>2022-08-25T09:02:35Z</time>
      </trkpt>
      <trkpt lat="45.05136" lon="1.05205">
        <ele>215.8</ele>
        <time>2022-08-25T09:02:45Z</time>
      </trkpt>
      <trkpt lat="45.05166" lon="1.05226">
        <ele>217</ele>
        <time>2022-08-25T09:02:57Z</time>
      </trkpt>
      <trkpt lat="45.05194" lon="1.05247">
        <ele>218</ele>
        <time>2022-08-25T09:03:08Z</time>
      </trkpt>
      <trkpt lat="45.05236" lon="1.05291">
        <ele>219</ele>
        <time>2022-08-25T09:03:26Z</time>
      </trkpt>
      <trkpt lat="45.0526" lon="1.05318">
        <ele>220.2</ele>
        <time>2022-08-25T09:03:36Z</time>
      </trkpt>
      <trkpt lat="45.05292" lon="1.0536">
        <ele>221.2</ele>
        <time>2022-08-25T09:03:51Z</time>
      </trkpt>
      <trkpt lat="45.05307" lon="1.05387">
        <ele>222.4</ele>
        <time>2022-08-25T09:04:00Z</time>
      </trkpt>
      <trkpt lat="45.05335" lon="1.05437">
        <ele>223.4</ele>
        <time>2022-08-25T09:04:17Z</time>
      </trkpt>
      <trkpt lat="45.05372" lon="1.05498">
        <ele>224</ele>
        <time>2022-08-25T09:04:34Z</time>
      </trkpt>
      <trkpt lat="45.05402" lon="1.05565">
        <ele>223.8</ele>
        <time>2022-08-25T09:04:50Z</time>
      </trkpt>
      <trkpt lat="45.05426" lon="1.05638">
        <ele>223</ele>
        <time>2022-08-25T09:05:10Z</time>
      </trkpt>
      <trkpt lat="45.05443" lon="1.05712">
        <ele>223.6</ele>
        <time>2022-08-25T09:05:24Z</time>
      </trkpt>
      <trkpt lat="45.05455" lon="1.05757">
        <ele>224.2</ele>
        <time>2022-08-25T09:05:33Z</time>
      </trkpt>
      <trkpt lat="45.05491" lon="1.05819">
        <ele>224.8</ele>
        <time>2022-08-25T09:05:49Z</time>
      </trkpt>
      <trkpt lat="45.05495" lon="1.05828">
        <ele>225.4</ele>
        <time>2022-08-25T09:05:51Z</time>
      </trkpt>
      <trkpt lat="45.055" lon="1.05878">
        <ele>226.6</ele>
        <time>2022-08-25T09:06:03Z</time>
      </trkpt>
      <trkpt lat="45.05497" lon="1.05904">
        <ele>227.6</ele>
        <time>2022-08-25T09:06:11Z</time>
      </trkpt>
      <trkpt lat="45.05494" lon="1.05931">
        <ele>228.6</ele>
        <time>2022-08-25T09:06:20Z</time>
      </trkpt>
      <trkpt lat="45.0549" lon="1.0596">
        <ele>229.8</ele>
        <time>2022-08-25T09:06:30Z</time>
      </trkpt>
      <trkpt lat="45.0548" lon="1.05987">
        <ele>230.8</ele>
        <time>2022-08-25T09:06:41Z</time>
      </trkpt>
      <trkpt lat="45.05469" lon="1.06012">
        <ele>231.8</ele>
        <time>2022-08-25T09:06:51Z</time>
      </trkpt>
      <trkpt lat="45.05467" lon="1.06038">
        <ele>232.8</ele>
        <time>2022-08-25T09:07:01Z</time>
      </trkpt>
      <trkpt lat="45.05467" lon="1.06059">
        <ele>233.8</ele>
        <time>2022-08-25T09:07:10Z</time>
      </trkpt>
      <trkpt lat="45.05468" lon="1.06082">
        <ele>234.8</ele>
        <time>2022-08-25T09:07:20Z</time>
      </trkpt>
      <trkpt lat="45.05467" lon="1.06106">
        <ele>235.8</ele>
        <time>2022-08-25T09:07:30Z</time>
      </trkpt>
      <trkpt lat="45.05466" lon="1.06128">
        <ele>236.8</ele>
        <time>2022-08-25T09:07:40Z</time>
      </trkpt>
      <trkpt lat="45.05462" lon="1.0615">
        <ele>238</ele>
        <time>2022-08-25T09:07:50Z</time>
      </trkpt>
      <trkpt lat="45.0546" lon="1.06178">
        <ele>239</ele>
        <time>2022-08-25T09:08:02Z</time>
      </trkpt>
      <trkpt lat="45.05458" lon="1.06212">
        <ele>240.2</ele>
        <time>2022-08-25T09:08:16Z</time>
      </trkpt>
      <trkpt lat="45.05458" lon="1.06239">
        <ele>241.2</ele>
        <time>2022-08-25T09:08:28Z</time>
      </trkpt>
      <trkpt lat="45.05458" lon="1.06273">
        <ele>242.4</ele>
        <time>2022-08-25T09:08:42Z</time>
      </trkpt>
      <trkpt lat="45.0544" lon="1.06327">
        <ele>243.4</ele>
        <time>2022-08-25T09:09:04Z</time>
      </trkpt>
      <trkpt lat="45.05395" lon="1.0637">
        <ele>244</ele>
        <time>2022-08-25T09:09:27Z</time>
      </trkpt>
      <trkpt lat="45.05388" lon="1.06377">
        <ele>244.4</ele>
        <time>2022-08-25T09:09:30Z</time>
      </trkpt>
      <trkpt lat="45.05374" lon="1.06399">
        <ele>244.2</ele>
        <time>2022-08-25T09:09:43Z</time>
      </trkpt>
      <trkpt lat="45.05419" lon="1.06355">
        <ele>244</ele>
        <time>2022-08-25T09:10:03Z</time>
      </trkpt>
      <trkpt lat="45.05418" lon="1.06351">
        <ele>243.4</ele>
        <time>2022-08-25T09:10:13Z</time>
      </trkpt>
      <trkpt lat="45.05373" lon="1.06397">
        <ele>243.6</ele>
        <time>2022-08-25T09:10:32Z</time>
      </trkpt>
      <trkpt lat="45.05358" lon="1.06445">
        <ele>244</ele>
        <time>2022-08-25T09:10:46Z</time>
      </trkpt>
      <trkpt lat="45.05398" lon="1.06475">
        <ele>243.4</ele>
        <time>2022-08-25T09:10:59Z</time>
      </trkpt>
      <trkpt lat="45.05449" lon="1.06507">
        <ele>242.6</ele>
        <time>2022-08-25T09:11:12Z</time>
      </trkpt>
      <trkpt lat="45.05506" lon="1.06521">
        <ele>242.8</ele>
        <time>2022-08-25T09:11:23Z</time>
      </trkpt>
      <trkpt lat="45.05511" lon="1.06522">
        <ele>242.2</ele>
        <time>2022-08-25T09:11:24Z</time>
      </trkpt>
      <trkpt lat="45.05537" lon="1.06524">
        <ele>241</ele>
        <time>2022-08-25T09:11:29Z</time>
      </trkpt>
      <trkpt lat="45.05592" lon="1.0653">
        <ele>240.8</ele>
        <time>2022-08-25T09:11:39Z</time>
      </trkpt>
      <trkpt lat="45.05612" lon="1.06532">
        <ele>240.2</ele>
        <time>2022-08-25T09:11:43Z</time>
      </trkpt>
      <trkpt lat="45.05664" lon="1.06557">
        <ele>240.6</ele>
        <time>2022-08-25T09:11:55Z</time>
      </trkpt>
      <trkpt lat="45.05716" lon="1.06584">
        <ele>242</ele>
        <time>2022-08-25T09:12:10Z</time>
      </trkpt>
      <trkpt lat="45.05723" lon="1.06587">
        <ele>242.2</ele>
        <time>2022-08-25T09:12:13Z</time>
      </trkpt>
      <trkpt lat="45.05775" lon="1.06619">
        <ele>243.2</ele>
        <time>2022-08-25T09:12:31Z</time>
      </trkpt>
      <trkpt lat="45.05784" lon="1.06624">
        <ele>243.2</ele>
        <time>2022-08-25T09:12:34Z</time>
      </trkpt>
      <trkpt lat="45.0584" lon="1.06642">
        <ele>243.4</ele>
        <time>2022-08-25T09:12:51Z</time>
      </trkpt>
      <trkpt lat="45.05859" lon="1.06642">
        <ele>243.8</ele>
        <time>2022-08-25T09:12:56Z</time>
      </trkpt>
      <trkpt lat="45.05892" lon="1.06641">
        <ele>242</ele>
        <time>2022-08-25T09:13:04Z</time>
      </trkpt>
      <trkpt lat="45.05951" lon="1.06644">
        <ele>241</ele>
        <time>2022-08-25T09:13:17Z</time>
      </trkpt>
      <trkpt lat="45.05994" lon="1.06662">
        <ele>239.4</ele>
        <time>2022-08-25T09:13:24Z</time>
      </trkpt>
      <trkpt lat="45.06024" lon="1.06678">
        <ele>237.8</ele>
        <time>2022-08-25T09:13:28Z</time>
      </trkpt>
      <trkpt lat="45.06059" lon="1.06689">
        <ele>237.4</ele>
        <time>2022-08-25T09:13:32Z</time>
      </trkpt>
      <trkpt lat="45.06076" lon="1.06683">
        <ele>237.2</ele>
        <time>2022-08-25T09:13:34Z</time>
      </trkpt>
      <trkpt lat="45.06098" lon="1.06665">
        <ele>236.8</ele>
        <time>2022-08-25T09:13:37Z</time>
      </trkpt>
      <trkpt lat="45.06137" lon="1.06626">
        <ele>238.2</ele>
        <time>2022-08-25T09:13:43Z</time>
      </trkpt>
      <trkpt lat="45.06147" lon="1.06615">
        <ele>239.4</ele>
        <time>2022-08-25T09:13:45Z</time>
      </trkpt>
      <trkpt lat="45.0619" lon="1.06587">
        <ele>240.6</ele>
        <time>2022-08-25T09:13:56Z</time>
      </trkpt>
      <trkpt lat="45.0621" lon="1.06581">
        <ele>241.6</ele>
        <time>2022-08-25T09:14:03Z</time>
      </trkpt>
      <trkpt lat="45.06264" lon="1.06579">
        <ele>242.2</ele>
        <time>2022-08-25T09:14:21Z</time>
      </trkpt>
      <trkpt lat="45.06291" lon="1.06575">
        <ele>242.6</ele>
        <time>2022-08-25T09:14:30Z</time>
      </trkpt>
      <trkpt lat="45.06323" lon="1.0657">
        <ele>243.2</ele>
        <time>2022-08-25T09:14:40Z</time>
      </trkpt>
      <trkpt lat="45.06363" lon="1.06564">
        <ele>243.8</ele>
        <time>2022-08-25T09:14:52Z</time>
      </trkpt>
      <trkpt lat="45.06393" lon="1.06556">
        <ele>244.8</ele>
        <time>2022-08-25T09:15:03Z</time>
      </trkpt>
      <trkpt lat="45.06432" lon="1.0655">
        <ele>245.8</ele>
        <time>2022-08-25T09:15:16Z</time>
      </trkpt>
      <trkpt lat="45.06474" lon="1.06538">
        <ele>246.8</ele>
        <time>2022-08-25T09:15:31Z</time>
      </trkpt>
      <trkpt lat="45.0653" lon="1.06526">
        <ele>247.8</ele>
        <time>2022-08-25T09:15:51Z</time>
      </trkpt>
      <trkpt lat="45.06567" lon="1.06516">
        <ele>248.8</ele>
        <time>2022-08-25T09:16:02Z</time>
      </trkpt>
      <trkpt lat="45.06611" lon="1.06507">
        <ele>250.2</ele>
        <time>2022-08-25T09:16:17Z</time>
      </trkpt>
      <trkpt lat="45.06628" lon="1.06504">
        <ele>251.2</ele>
        <time>2022-08-25T09:16:23Z</time>
      </trkpt>
      <trkpt lat="45.06682" lon="1.06495">
        <ele>251.8</ele>
        <time>2022-08-25T09:16:41Z</time>
      </trkpt>
      <trkpt lat="45.06691" lon="1.06493">
        <ele>252.2</ele>
        <time>2022-08-25T09:16:44Z</time>
      </trkpt>
      <trkpt lat="45.06744" lon="1.06483">
        <ele>253.2</ele>
        <time>2022-08-25T09:17:01Z</time>
      </trkpt>
      <trkpt lat="45.0678" lon="1.06477">
        <ele>254.4</ele>
        <time>2022-08-25T09:17:14Z</time>
      </trkpt>
      <trkpt lat="45.06834" lon="1.0647">
        <ele>254.8</ele>
        <time>2022-08-25T09:17:32Z</time>
      </trkpt>
      <trkpt lat="45.06891" lon="1.06467">
        <ele>253.8</ele>
        <time>2022-08-25T09:17:49Z</time>
      </trkpt>
      <trkpt lat="45.06918" lon="1.06452">
        <ele>253.8</ele>
        <time>2022-08-25T09:17:57Z</time>
      </trkpt>
      <trkpt lat="45.06939" lon="1.06448">
        <ele>253</ele>
        <time>2022-08-25T09:18:01Z</time>
      </trkpt>
      <trkpt lat="45.06957" lon="1.06446">
        <ele>251.6</ele>
        <time>2022-08-25T09:18:04Z</time>
      </trkpt>
      <trkpt lat="45.07006" lon="1.06437">
        <ele>250.2</ele>
        <time>2022-08-25T09:18:11Z</time>
      </trkpt>
      <trkpt lat="45.07021" lon="1.06435">
        <ele>249.2</ele>
        <time>2022-08-25T09:18:13Z</time>
      </trkpt>
      <trkpt lat="45.07081" lon="1.06437">
        <ele>248.6</ele>
        <time>2022-08-25T09:18:21Z</time>
      </trkpt>
      <trkpt lat="45.07136" lon="1.06449">
        <ele>248.8</ele>
        <time>2022-08-25T09:18:29Z</time>
      </trkpt>
      <trkpt lat="45.07185" lon="1.06459">
        <ele>250.2</ele>
        <time>2022-08-25T09:18:38Z</time>
      </trkpt>
      <trkpt lat="45.072" lon="1.06463">
        <ele>251.4</ele>
        <time>2022-08-25T09:18:43Z</time>
      </trkpt>
      <trkpt lat="45.0722" lon="1.06466">
        <ele>252.4</ele>
        <time>2022-08-25T09:18:52Z</time>
      </trkpt>
      <trkpt lat="45.07261" lon="1.06471">
        <ele>253.4</ele>
        <time>2022-08-25T09:19:10Z</time>
      </trkpt>
      <trkpt lat="45.07309" lon="1.06471">
        <ele>252.4</ele>
        <time>2022-08-25T09:19:21Z</time>
      </trkpt>
      <trkpt lat="45.07368" lon="1.06466">
        <ele>251</ele>
        <time>2022-08-25T09:19:31Z</time>
      </trkpt>
      <trkpt lat="45.07429" lon="1.06463">
        <ele>251.6</ele>
        <time>2022-08-25T09:19:40Z</time>
      </trkpt>
      <trkpt lat="45.07467" lon="1.06462">
        <ele>252.4</ele>
        <time>2022-08-25T09:19:47Z</time>
      </trkpt>
      <trkpt lat="45.07505" lon="1.06461">
        <ele>253.6</ele>
        <time>2022-08-25T09:19:57Z</time>
      </trkpt>
      <trkpt lat="45.07555" lon="1.06462">
        <ele>254.6</ele>
        <time>2022-08-25T09:20:12Z</time>
      </trkpt>
      <trkpt lat="45.07587" lon="1.06463">
        <ele>255.8</ele>
        <time>2022-08-25T09:20:23Z</time>
      </trkpt>
      <trkpt lat="45.07644" lon="1.06467">
        <ele>256</ele>
        <time>2022-08-25T09:20:43Z</time>
      </trkpt>
      <trkpt lat="45.07665" lon="1.0647">
        <ele>254.6</ele>
        <time>2022-08-25T09:20:49Z</time>
      </trkpt>
      <trkpt lat="45.07711" lon="1.06472">
        <ele>253.8</ele>
        <time>2022-08-25T09:20:59Z</time>
      </trkpt>
      <trkpt lat="45.07727" lon="1.06473">
        <ele>253.4</ele>
        <time>2022-08-25T09:21:02Z</time>
      </trkpt>
      <trkpt lat="45.07735" lon="1.06463">
        <ele>253.2</ele>
        <time>2022-08-25T09:21:05Z</time>
      </trkpt>
      <trkpt lat="45.07703" lon="1.064">
        <ele>253.4</ele>
        <time>2022-08-25T09:21:20Z</time>
      </trkpt>
      <trkpt lat="45.07668" lon="1.06336">
        <ele>252.8</ele>
        <time>2022-08-25T09:21:33Z</time>
      </trkpt>
      <trkpt lat="45.07653" lon="1.06298">
        <ele>252.4</ele>
        <time>2022-08-25T09:21:40Z</time>
      </trkpt>
      <trkpt lat="45.07648" lon="1.06285">
        <ele>251.8</ele>
        <time>2022-08-25T09:21:42Z</time>
      </trkpt>
      <trkpt lat="45.07637" lon="1.06253">
        <ele>251</ele>
        <time>2022-08-25T09:21:47Z</time>
      </trkpt>
      <trkpt lat="45.07625" lon="1.06206">
        <ele>249.8</ele>
        <time>2022-08-25T09:21:53Z</time>
      </trkpt>
      <trkpt lat="45.07615" lon="1.06163">
        <ele>251</ele>
        <time>2022-08-25T09:21:58Z</time>
      </trkpt>
      <trkpt lat="45.07606" lon="1.06138">
        <ele>248.8</ele>
        <time>2022-08-25T09:22:01Z</time>
      </trkpt>
      <trkpt lat="45.07599" lon="1.06123">
        <ele>247.4</ele>
        <time>2022-08-25T09:22:03Z</time>
      </trkpt>
      <trkpt lat="45.07587" lon="1.06101">
        <ele>246</ele>
        <time>2022-08-25T09:22:06Z</time>
      </trkpt>
      <trkpt lat="45.0756" lon="1.06063">
        <ele>246.2</ele>
        <time>2022-08-25T09:22:12Z</time>
      </trkpt>
      <trkpt lat="45.07522" lon="1.06033">
        <ele>247.2</ele>
        <time>2022-08-25T09:22:20Z</time>
      </trkpt>
      <trkpt lat="45.07514" lon="1.06024">
        <ele>246.8</ele>
        <time>2022-08-25T09:22:22Z</time>
      </trkpt>
      <trkpt lat="45.07508" lon="1.06014">
        <ele>246.6</ele>
        <time>2022-08-25T09:22:24Z</time>
      </trkpt>
      <trkpt lat="45.07503" lon="1.06003">
        <ele>246.2</ele>
        <time>2022-08-25T09:22:26Z</time>
      </trkpt>
      <trkpt lat="45.07502" lon="1.05997">
        <ele>246</ele>
        <time>2022-08-25T09:22:27Z</time>
      </trkpt>
      <trkpt lat="45.07492" lon="1.05961">
        <ele>244.6</ele>
        <time>2022-08-25T09:22:33Z</time>
      </trkpt>
      <trkpt lat="45.07487" lon="1.05946">
        <ele>243.6</ele>
        <time>2022-08-25T09:22:35Z</time>
      </trkpt>
      <trkpt lat="45.07467" lon="1.05872">
        <ele>242</ele>
        <time>2022-08-25T09:22:44Z</time>
      </trkpt>
      <trkpt lat="45.07458" lon="1.05822">
        <ele>240.8</ele>
        <time>2022-08-25T09:22:49Z</time>
      </trkpt>
      <trkpt lat="45.07454" lon="1.0579">
        <ele>239.6</ele>
        <time>2022-08-25T09:22:52Z</time>
      </trkpt>
      <trkpt lat="45.07447" lon="1.05735">
        <ele>238.4</ele>
        <time>2022-08-25T09:22:57Z</time>
      </trkpt>
      <trkpt lat="45.07436" lon="1.05655">
        <ele>237.2</ele>
        <time>2022-08-25T09:23:04Z</time>
      </trkpt>
      <trkpt lat="45.07434" lon="1.05578">
        <ele>236.6</ele>
        <time>2022-08-25T09:23:12Z</time>
      </trkpt>
      <trkpt lat="45.07444" lon="1.05508">
        <ele>236</ele>
        <time>2022-08-25T09:23:22Z</time>
      </trkpt>
      <trkpt lat="45.07454" lon="1.05433">
        <ele>235.4</ele>
        <time>2022-08-25T09:23:32Z</time>
      </trkpt>
      <trkpt lat="45.07455" lon="1.05425">
        <ele>234.8</ele>
        <time>2022-08-25T09:23:33Z</time>
      </trkpt>
      <trkpt lat="45.07458" lon="1.0539">
        <ele>233.8</ele>
        <time>2022-08-25T09:23:37Z</time>
      </trkpt>
      <trkpt lat="45.07458" lon="1.05371">
        <ele>232.8</ele>
        <time>2022-08-25T09:23:39Z</time>
      </trkpt>
      <trkpt lat="45.07452" lon="1.05313">
        <ele>232.4</ele>
        <time>2022-08-25T09:23:45Z</time>
      </trkpt>
      <trkpt lat="45.07449" lon="1.05294">
        <ele>232.2</ele>
        <time>2022-08-25T09:23:47Z</time>
      </trkpt>
      <trkpt lat="45.07445" lon="1.05276">
        <ele>231.6</ele>
        <time>2022-08-25T09:23:49Z</time>
      </trkpt>
      <trkpt lat="45.07439" lon="1.0525">
        <ele>231.4</ele>
        <time>2022-08-25T09:23:52Z</time>
      </trkpt>
      <trkpt lat="45.07437" lon="1.05241">
        <ele>230.8</ele>
        <time>2022-08-25T09:23:53Z</time>
      </trkpt>
      <trkpt lat="45.07432" lon="1.05225">
        <ele>230.8</ele>
        <time>2022-08-25T09:23:55Z</time>
      </trkpt>
      <trkpt lat="45.07426" lon="1.05208">
        <ele>230</ele>
        <time>2022-08-25T09:23:57Z</time>
      </trkpt>
      <trkpt lat="45.07421" lon="1.05189">
        <ele>229.2</ele>
        <time>2022-08-25T09:23:59Z</time>
      </trkpt>
      <trkpt lat="45.07419" lon="1.05178">
        <ele>228.8</ele>
        <time>2022-08-25T09:24:00Z</time>
      </trkpt>
      <trkpt lat="45.07417" lon="1.05154">
        <ele>227.6</ele>
        <time>2022-08-25T09:24:02Z</time>
      </trkpt>
      <trkpt lat="45.07416" lon="1.05131">
        <ele>226.2</ele>
        <time>2022-08-25T09:24:04Z</time>
      </trkpt>
      <trkpt lat="45.07416" lon="1.0511">
        <ele>225.2</ele>
        <time>2022-08-25T09:24:06Z</time>
      </trkpt>
      <trkpt lat="45.07415" lon="1.05091">
        <ele>223.8</ele>
        <time>2022-08-25T09:24:08Z</time>
      </trkpt>
      <trkpt lat="45.07415" lon="1.05082">
        <ele>223.2</ele>
        <time>2022-08-25T09:24:09Z</time>
      </trkpt>
      <trkpt lat="45.07416" lon="1.05074">
        <ele>222.6</ele>
        <time>2022-08-25T09:24:10Z</time>
      </trkpt>
      <trkpt lat="45.07419" lon="1.05066">
        <ele>222.2</ele>
        <time>2022-08-25T09:24:11Z</time>
      </trkpt>
      <trkpt lat="45.07427" lon="1.05054">
        <ele>221</ele>
        <time>2022-08-25T09:24:13Z</time>
      </trkpt>
      <trkpt lat="45.07442" lon="1.05049">
        <ele>219.6</ele>
        <time>2022-08-25T09:24:15Z</time>
      </trkpt>
      <trkpt lat="45.07479" lon="1.05054">
        <ele>218</ele>
        <time>2022-08-25T09:24:19Z</time>
      </trkpt>
      <trkpt lat="45.07499" lon="1.05054">
        <ele>216.8</ele>
        <time>2022-08-25T09:24:21Z</time>
      </trkpt>
      <trkpt lat="45.07519" lon="1.05054">
        <ele>214.4</ele>
        <time>2022-08-25T09:24:23Z</time>
      </trkpt>
      <trkpt lat="45.07529" lon="1.05057">
        <ele>213.2</ele>
        <time>2022-08-25T09:24:24Z</time>
      </trkpt>
      <trkpt lat="45.07539" lon="1.05062">
        <ele>212.2</ele>
        <time>2022-08-25T09:24:25Z</time>
      </trkpt>
      <trkpt lat="45.07549" lon="1.05068">
        <ele>211</ele>
        <time>2022-08-25T09:24:26Z</time>
      </trkpt>
      <trkpt lat="45.0756" lon="1.05075">
        <ele>209.8</ele>
        <time>2022-08-25T09:24:27Z</time>
      </trkpt>
      <trkpt lat="45.07571" lon="1.05083">
        <ele>208.6</ele>
        <time>2022-08-25T09:24:28Z</time>
      </trkpt>
      <trkpt lat="45.07583" lon="1.0509">
        <ele>207.4</ele>
        <time>2022-08-25T09:24:29Z</time>
      </trkpt>
      <trkpt lat="45.07606" lon="1.05104">
        <ele>205</ele>
        <time>2022-08-25T09:24:31Z</time>
      </trkpt>
      <trkpt lat="45.07617" lon="1.05109">
        <ele>203.2</ele>
        <time>2022-08-25T09:24:32Z</time>
      </trkpt>
      <trkpt lat="45.07628" lon="1.05115">
        <ele>201.6</ele>
        <time>2022-08-25T09:24:33Z</time>
      </trkpt>
      <trkpt lat="45.07637" lon="1.05121">
        <ele>200</ele>
        <time>2022-08-25T09:24:34Z</time>
      </trkpt>
      <trkpt lat="45.07646" lon="1.05127">
        <ele>198.8</ele>
        <time>2022-08-25T09:24:35Z</time>
      </trkpt>
      <trkpt lat="45.07662" lon="1.05141">
        <ele>196.6</ele>
        <time>2022-08-25T09:24:37Z</time>
      </trkpt>
      <trkpt lat="45.07669" lon="1.05148">
        <ele>195.4</ele>
        <time>2022-08-25T09:24:38Z</time>
      </trkpt>
      <trkpt lat="45.07684" lon="1.05164">
        <ele>193.4</ele>
        <time>2022-08-25T09:24:40Z</time>
      </trkpt>
      <trkpt lat="45.07699" lon="1.05179">
        <ele>191.4</ele>
        <time>2022-08-25T09:24:42Z</time>
      </trkpt>
      <trkpt lat="45.07712" lon="1.05194">
        <ele>189.4</ele>
        <time>2022-08-25T09:24:44Z</time>
      </trkpt>
      <trkpt lat="45.07722" lon="1.05206">
        <ele>187.8</ele>
        <time>2022-08-25T09:24:46Z</time>
      </trkpt>
      <trkpt lat="45.07726" lon="1.0521">
        <ele>187</ele>
        <time>2022-08-25T09:24:47Z</time>
      </trkpt>
      <trkpt lat="45.07729" lon="1.05213">
        <ele>186.2</ele>
        <time>2022-08-25T09:24:48Z</time>
      </trkpt>
      <trkpt lat="45.07733" lon="1.05213">
        <ele>185.6</ele>
        <time>2022-08-25T09:24:49Z</time>
      </trkpt>
      <trkpt lat="45.07736" lon="1.05212">
        <ele>185.2</ele>
        <time>2022-08-25T09:24:50Z</time>
      </trkpt>
      <trkpt lat="45.07738" lon="1.05209">
        <ele>185</ele>
        <time>2022-08-25T09:24:51Z</time>
      </trkpt>
      <trkpt lat="45.07731" lon="1.05189">
        <ele>184.2</ele>
        <time>2022-08-25T09:24:55Z</time>
      </trkpt>
      <trkpt lat="45.07717" lon="1.05137">
        <ele>183.2</ele>
        <time>2022-08-25T09:25:05Z</time>
      </trkpt>
      <trkpt lat="45.07704" lon="1.05078">
        <ele>182</ele>
        <time>2022-08-25T09:25:15Z</time>
      </trkpt>
      <trkpt lat="45.07692" lon="1.05037">
        <ele>180.8</ele>
        <time>2022-08-25T09:25:20Z</time>
      </trkpt>
      <trkpt lat="45.07666" lon="1.04987">
        <ele>179.4</ele>
        <time>2022-08-25T09:25:26Z</time>
      </trkpt>
      <trkpt lat="45.07657" lon="1.04973">
        <ele>177.8</ele>
        <time>2022-08-25T09:25:28Z</time>
      </trkpt>
      <trkpt lat="45.07618" lon="1.0491">
        <ele>176.8</ele>
        <time>2022-08-25T09:25:36Z</time>
      </trkpt>
      <trkpt lat="45.07606" lon="1.04883">
        <ele>175.8</ele>
        <time>2022-08-25T09:25:40Z</time>
      </trkpt>
      <trkpt lat="45.07591" lon="1.04848">
        <ele>174.6</ele>
        <time>2022-08-25T09:25:45Z</time>
      </trkpt>
      <trkpt lat="45.0757" lon="1.04806">
        <ele>173.2</ele>
        <time>2022-08-25T09:25:51Z</time>
      </trkpt>
      <trkpt lat="45.0755" lon="1.04773">
        <ele>171.8</ele>
        <time>2022-08-25T09:25:55Z</time>
      </trkpt>
      <trkpt lat="45.07533" lon="1.04749">
        <ele>171</ele>
        <time>2022-08-25T09:26:01Z</time>
      </trkpt>
      <trkpt lat="45.07534" lon="1.04745">
        <ele>170.6</ele>
        <time>2022-08-25T09:26:02Z</time>
      </trkpt>
      <trkpt lat="45.07537" lon="1.04742">
        <ele>170.6</ele>
        <time>2022-08-25T09:26:03Z</time>
      </trkpt>
      <trkpt lat="45.07556" lon="1.04707">
        <ele>172</ele>
        <time>2022-08-25T09:26:42Z</time>
      </trkpt>
      <trkpt lat="45.07568" lon="1.0469">
        <ele>172.4</ele>
        <time>2022-08-25T09:29:04Z</time>
      </trkpt>
      <trkpt lat="45.07578" lon="1.04682">
        <ele>173</ele>
        <time>2022-08-25T09:29:12Z</time>
      </trkpt>
      <trkpt lat="45.07594" lon="1.04674">
        <ele>174</ele>
        <time>2022-08-25T09:29:25Z</time>
      </trkpt>
      <trkpt lat="45.07608" lon="1.04666">
        <ele>175</ele>
        <time>2022-08-25T09:29:37Z</time>
      </trkpt>
      <trkpt lat="45.07617" lon="1.04659">
        <ele>176.2</ele>
        <time>2022-08-25T09:29:47Z</time>
      </trkpt>
      <trkpt lat="45.07622" lon="1.04655">
        <ele>177.2</ele>
        <time>2022-08-25T09:29:54Z</time>
      </trkpt>
      <trkpt lat="45.07629" lon="1.0465">
        <ele>178.2</ele>
        <time>2022-08-25T09:30:01Z</time>
      </trkpt>
      <trkpt lat="45.07635" lon="1.04645">
        <ele>179.2</ele>
        <time>2022-08-25T09:30:07Z</time>
      </trkpt>
      <trkpt lat="45.07639" lon="1.04641">
        <ele>180.2</ele>
        <time>2022-08-25T09:30:12Z</time>
      </trkpt>
      <trkpt lat="45.07643" lon="1.04637">
        <ele>181.4</ele>
        <time>2022-08-25T09:30:17Z</time>
      </trkpt>
      <trkpt lat="45.07648" lon="1.04633">
        <ele>182.6</ele>
        <time>2022-08-25T09:30:22Z</time>
      </trkpt>
      <trkpt lat="45.07652" lon="1.04626">
        <ele>183.6</ele>
        <time>2022-08-25T09:30:27Z</time>
      </trkpt>
      <trkpt lat="45.07657" lon="1.04618">
        <ele>184.8</ele>
        <time>2022-08-25T09:30:33Z</time>
      </trkpt>
      <trkpt lat="45.07658" lon="1.04611">
        <ele>185.8</ele>
        <time>2022-08-25T09:30:46Z</time>
      </trkpt>
      <trkpt lat="45.07659" lon="1.0461">
        <ele>186</ele>
        <time>2022-08-25T09:30:47Z</time>
      </trkpt>
      <trkpt lat="45.07666" lon="1.04606">
        <ele>186.8</ele>
        <time>2022-08-25T09:30:54Z</time>
      </trkpt>
      <trkpt lat="45.07675" lon="1.04599">
        <ele>188</ele>
        <time>2022-08-25T09:31:03Z</time>
      </trkpt>
      <trkpt lat="45.07684" lon="1.04592">
        <ele>189.2</ele>
        <time>2022-08-25T09:31:12Z</time>
      </trkpt>
      <trkpt lat="45.07695" lon="1.04586">
        <ele>190.2</ele>
        <time>2022-08-25T09:31:21Z</time>
      </trkpt>
      <trkpt lat="45.07705" lon="1.0458">
        <ele>191.2</ele>
        <time>2022-08-25T09:31:30Z</time>
      </trkpt>
      <trkpt lat="45.07712" lon="1.04573">
        <ele>192.4</ele>
        <time>2022-08-25T09:31:38Z</time>
      </trkpt>
      <trkpt lat="45.07716" lon="1.04565">
        <ele>193.2</ele>
        <time>2022-08-25T09:31:44Z</time>
      </trkpt>
      <trkpt lat="45.07723" lon="1.04558">
        <ele>194.6</ele>
        <time>2022-08-25T09:31:52Z</time>
      </trkpt>
      <trkpt lat="45.07731" lon="1.04553">
        <ele>195.6</ele>
        <time>2022-08-25T09:31:59Z</time>
      </trkpt>
      <trkpt lat="45.07736" lon="1.04547">
        <ele>196.4</ele>
        <time>2022-08-25T09:32:06Z</time>
      </trkpt>
      <trkpt lat="45.07737" lon="1.04546">
        <ele>196.6</ele>
        <time>2022-08-25T09:32:07Z</time>
      </trkpt>
      <trkpt lat="45.07744" lon="1.04542">
        <ele>197.6</ele>
        <time>2022-08-25T09:32:14Z</time>
      </trkpt>
      <trkpt lat="45.07751" lon="1.04537">
        <ele>198.8</ele>
        <time>2022-08-25T09:32:21Z</time>
      </trkpt>
      <trkpt lat="45.07758" lon="1.04532">
        <ele>200</ele>
        <time>2022-08-25T09:32:29Z</time>
      </trkpt>
      <trkpt lat="45.07765" lon="1.04526">
        <ele>201</ele>
        <time>2022-08-25T09:32:37Z</time>
      </trkpt>
      <trkpt lat="45.07773" lon="1.04522">
        <ele>202.2</ele>
        <time>2022-08-25T09:32:44Z</time>
      </trkpt>
      <trkpt lat="45.07782" lon="1.04518">
        <ele>203.2</ele>
        <time>2022-08-25T09:32:51Z</time>
      </trkpt>
      <trkpt lat="45.07783" lon="1.04518">
        <ele>203.2</ele>
        <time>2022-08-25T09:32:52Z</time>
      </trkpt>
      <trkpt lat="45.07786" lon="1.04516">
        <ele>203.6</ele>
        <time>2022-08-25T09:32:55Z</time>
      </trkpt>
      <trkpt lat="45.07789" lon="1.04513">
        <ele>204.4</ele>
        <time>2022-08-25T09:32:58Z</time>
      </trkpt>
      <trkpt lat="45.078" lon="1.04508">
        <ele>205.4</ele>
        <time>2022-08-25T09:33:07Z</time>
      </trkpt>
      <trkpt lat="45.07806" lon="1.04504">
        <ele>206.2</ele>
        <time>2022-08-25T09:33:14Z</time>
      </trkpt>
      <trkpt lat="45.07807" lon="1.04503">
        <ele>206.4</ele>
        <time>2022-08-25T09:33:15Z</time>
      </trkpt>
      <trkpt lat="45.07812" lon="1.045">
        <ele>207</ele>
        <time>2022-08-25T09:33:19Z</time>
      </trkpt>
      <trkpt lat="45.07818" lon="1.04498">
        <ele>207.4</ele>
        <time>2022-08-25T09:33:24Z</time>
      </trkpt>
      <trkpt lat="45.07826" lon="1.04493">
        <ele>208.6</ele>
        <time>2022-08-25T09:33:32Z</time>
      </trkpt>
      <trkpt lat="45.07834" lon="1.04491">
        <ele>209.8</ele>
        <time>2022-08-25T09:33:38Z</time>
      </trkpt>
      <trkpt lat="45.07841" lon="1.04487">
        <ele>210.8</ele>
        <time>2022-08-25T09:33:45Z</time>
      </trkpt>
      <trkpt lat="45.07847" lon="1.04487">
        <ele>212</ele>
        <time>2022-08-25T09:33:51Z</time>
      </trkpt>
      <trkpt lat="45.07857" lon="1.04486">
        <ele>213</ele>
        <time>2022-08-25T09:33:58Z</time>
      </trkpt>
      <trkpt lat="45.07866" lon="1.04486">
        <ele>214</ele>
        <time>2022-08-25T09:34:04Z</time>
      </trkpt>
      <trkpt lat="45.07876" lon="1.04485">
        <ele>215.2</ele>
        <time>2022-08-25T09:34:12Z</time>
      </trkpt>
      <trkpt lat="45.07887" lon="1.04486">
        <ele>216.4</ele>
        <time>2022-08-25T09:34:48Z</time>
      </trkpt>
      <trkpt lat="45.07894" lon="1.04486">
        <ele>217</ele>
        <time>2022-08-25T09:34:56Z</time>
      </trkpt>
      <trkpt lat="45.07896" lon="1.04485">
        <ele>217.4</ele>
        <time>2022-08-25T09:34:58Z</time>
      </trkpt>
      <trkpt lat="45.07905" lon="1.04483">
        <ele>218.2</ele>
        <time>2022-08-25T09:35:05Z</time>
      </trkpt>
      <trkpt lat="45.07915" lon="1.04482">
        <ele>219.4</ele>
        <time>2022-08-25T09:35:13Z</time>
      </trkpt>
      <trkpt lat="45.07926" lon="1.0448">
        <ele>220.6</ele>
        <time>2022-08-25T09:35:22Z</time>
      </trkpt>
      <trkpt lat="45.07937" lon="1.04479">
        <ele>221.6</ele>
        <time>2022-08-25T09:35:31Z</time>
      </trkpt>
      <trkpt lat="45.07948" lon="1.04477">
        <ele>222.8</ele>
        <time>2022-08-25T09:35:39Z</time>
      </trkpt>
      <trkpt lat="45.07962" lon="1.0448">
        <ele>223.8</ele>
        <time>2022-08-25T09:35:50Z</time>
      </trkpt>
      <trkpt lat="45.07971" lon="1.04481">
        <ele>225</ele>
        <time>2022-08-25T09:35:59Z</time>
      </trkpt>
      <trkpt lat="45.07978" lon="1.04483">
        <ele>226</ele>
        <time>2022-08-25T09:36:04Z</time>
      </trkpt>
      <trkpt lat="45.07986" lon="1.04484">
        <ele>227.2</ele>
        <time>2022-08-25T09:36:09Z</time>
      </trkpt>
      <trkpt lat="45.07994" lon="1.04485">
        <ele>228.4</ele>
        <time>2022-08-25T09:36:14Z</time>
      </trkpt>
      <trkpt lat="45.08004" lon="1.04485">
        <ele>229.4</ele>
        <time>2022-08-25T09:36:22Z</time>
      </trkpt>
      <trkpt lat="45.08017" lon="1.04479">
        <ele>230.4</ele>
        <time>2022-08-25T09:36:32Z</time>
      </trkpt>
      <trkpt lat="45.08026" lon="1.04478">
        <ele>231.4</ele>
        <time>2022-08-25T09:36:41Z</time>
      </trkpt>
      <trkpt lat="45.08031" lon="1.04479">
        <ele>231.8</ele>
        <time>2022-08-25T09:36:45Z</time>
      </trkpt>
      <trkpt lat="45.08035" lon="1.04481">
        <ele>232.6</ele>
        <time>2022-08-25T09:36:48Z</time>
      </trkpt>
      <trkpt lat="45.08041" lon="1.04486">
        <ele>233.6</ele>
        <time>2022-08-25T09:36:53Z</time>
      </trkpt>
      <trkpt lat="45.08049" lon="1.04491">
        <ele>234.8</ele>
        <time>2022-08-25T09:37:01Z</time>
      </trkpt>
      <trkpt lat="45.08054" lon="1.04499">
        <ele>235.8</ele>
        <time>2022-08-25T09:37:08Z</time>
      </trkpt>
      <trkpt lat="45.08061" lon="1.04516">
        <ele>237</ele>
        <time>2022-08-25T09:37:18Z</time>
      </trkpt>
      <trkpt lat="45.08061" lon="1.04518">
        <ele>237</ele>
        <time>2022-08-25T09:37:19Z</time>
      </trkpt>
      <trkpt lat="45.08051" lon="1.04557">
        <ele>238</ele>
        <time>2022-08-25T09:37:38Z</time>
      </trkpt>
      <trkpt lat="45.08041" lon="1.0458">
        <ele>239</ele>
        <time>2022-08-25T09:37:49Z</time>
      </trkpt>
      <trkpt lat="45.08028" lon="1.046">
        <ele>239.8</ele>
        <time>2022-08-25T09:38:03Z</time>
      </trkpt>
      <trkpt lat="45.08016" lon="1.04616">
        <ele>241</ele>
        <time>2022-08-25T09:38:13Z</time>
      </trkpt>
      <trkpt lat="45.08006" lon="1.04632">
        <ele>242.2</ele>
        <time>2022-08-25T09:38:23Z</time>
      </trkpt>
      <trkpt lat="45.08011" lon="1.04646">
        <ele>243.4</ele>
        <time>2022-08-25T09:38:31Z</time>
      </trkpt>
      <trkpt lat="45.08021" lon="1.04657">
        <ele>244.4</ele>
        <time>2022-08-25T09:38:40Z</time>
      </trkpt>
      <trkpt lat="45.08034" lon="1.0467">
        <ele>245.6</ele>
        <time>2022-08-25T09:38:52Z</time>
      </trkpt>
      <trkpt lat="45.08051" lon="1.04691">
        <ele>246.6</ele>
        <time>2022-08-25T09:39:08Z</time>
      </trkpt>
      <trkpt lat="45.08079" lon="1.0472">
        <ele>247.6</ele>
        <time>2022-08-25T09:39:29Z</time>
      </trkpt>
      <trkpt lat="45.08125" lon="1.04761">
        <ele>247.8</ele>
        <time>2022-08-25T09:39:59Z</time>
      </trkpt>
      <trkpt lat="45.08164" lon="1.04751">
        <ele>248.6</ele>
        <time>2022-08-25T09:40:16Z</time>
      </trkpt>
      <trkpt lat="45.08205" lon="1.04745">
        <ele>249.8</ele>
        <time>2022-08-25T09:40:35Z</time>
      </trkpt>
      <trkpt lat="45.08259" lon="1.04741">
        <ele>250.4</ele>
        <time>2022-08-25T09:40:58Z</time>
      </trkpt>
      <trkpt lat="45.08269" lon="1.04739">
        <ele>250.8</ele>
        <time>2022-08-25T09:41:02Z</time>
      </trkpt>
      <trkpt lat="45.08322" lon="1.04718">
        <ele>250.8</ele>
        <time>2022-08-25T09:41:29Z</time>
      </trkpt>
      <trkpt lat="45.08374" lon="1.04698">
        <ele>250.4</ele>
        <time>2022-08-25T09:41:53Z</time>
      </trkpt>
      <trkpt lat="45.08393" lon="1.04694">
        <ele>249.8</ele>
        <time>2022-08-25T09:41:59Z</time>
      </trkpt>
      <trkpt lat="45.08422" lon="1.04687">
        <ele>248.6</ele>
        <time>2022-08-25T09:42:06Z</time>
      </trkpt>
      <trkpt lat="45.08477" lon="1.047">
        <ele>248</ele>
        <time>2022-08-25T09:42:22Z</time>
      </trkpt>
      <trkpt lat="45.08495" lon="1.04711">
        <ele>247.2</ele>
        <time>2022-08-25T09:42:30Z</time>
      </trkpt>
      <trkpt lat="45.08498" lon="1.04712">
        <ele>247.4</ele>
        <time>2022-08-25T09:42:31Z</time>
      </trkpt>
      <trkpt lat="45.08514" lon="1.0472">
        <ele>247.2</ele>
        <time>2022-08-25T09:42:38Z</time>
      </trkpt>
      <trkpt lat="45.08519" lon="1.04712">
        <ele>248</ele>
        <time>2022-08-25T09:42:43Z</time>
      </trkpt>
      <trkpt lat="45.08513" lon="1.04693">
        <ele>248.6</ele>
        <time>2022-08-25T09:42:50Z</time>
      </trkpt>
      <trkpt lat="45.08504" lon="1.04663">
        <ele>249.6</ele>
        <time>2022-08-25T09:43:02Z</time>
      </trkpt>
      <trkpt lat="45.08499" lon="1.0465">
        <ele>250.6</ele>
        <time>2022-08-25T09:43:08Z</time>
      </trkpt>
      <trkpt lat="45.08493" lon="1.04632">
        <ele>251.6</ele>
        <time>2022-08-25T09:43:17Z</time>
      </trkpt>
      <trkpt lat="45.0849" lon="1.04624">
        <ele>252</ele>
        <time>2022-08-25T09:43:21Z</time>
      </trkpt>
      <trkpt lat="45.08482" lon="1.04605">
        <ele>252.8</ele>
        <time>2022-08-25T09:43:30Z</time>
      </trkpt>
      <trkpt lat="45.08471" lon="1.04579">
        <ele>253.8</ele>
        <time>2022-08-25T09:43:43Z</time>
      </trkpt>
      <trkpt lat="45.08446" lon="1.04509">
        <ele>253.2</ele>
        <time>2022-08-25T09:44:05Z</time>
      </trkpt>
      <trkpt lat="45.08443" lon="1.04498">
        <ele>252.6</ele>
        <time>2022-08-25T09:44:08Z</time>
      </trkpt>
      <trkpt lat="45.08419" lon="1.04428">
        <ele>251.8</ele>
        <time>2022-08-25T09:44:23Z</time>
      </trkpt>
      <trkpt lat="45.08403" lon="1.04354">
        <ele>252.4</ele>
        <time>2022-08-25T09:44:39Z</time>
      </trkpt>
      <trkpt lat="45.08392" lon="1.04276">
        <ele>253</ele>
        <time>2022-08-25T09:45:03Z</time>
      </trkpt>
      <trkpt lat="45.0838" lon="1.04201">
        <ele>252.4</ele>
        <time>2022-08-25T09:45:19Z</time>
      </trkpt>
      <trkpt lat="45.08366" lon="1.04125">
        <ele>251.6</ele>
        <time>2022-08-25T09:45:36Z</time>
      </trkpt>
      <trkpt lat="45.08366" lon="1.04116">
        <ele>251.6</ele>
        <time>2022-08-25T09:45:38Z</time>
      </trkpt>
      <trkpt lat="45.08356" lon="1.04067">
        <ele>250.4</ele>
        <time>2022-08-25T09:45:47Z</time>
      </trkpt>
      <trkpt lat="45.08355" lon="1.04061">
        <ele>250.2</ele>
        <time>2022-08-25T09:45:48Z</time>
      </trkpt>
      <trkpt lat="45.08354" lon="1.04048">
        <ele>250.2</ele>
        <time>2022-08-25T09:45:50Z</time>
      </trkpt>
      <trkpt lat="45.08352" lon="1.04035">
        <ele>249.2</ele>
        <time>2022-08-25T09:45:52Z</time>
      </trkpt>
      <trkpt lat="45.08342" lon="1.03991">
        <ele>248</ele>
        <time>2022-08-25T09:45:58Z</time>
      </trkpt>
      <trkpt lat="45.08339" lon="1.03974">
        <ele>247</ele>
        <time>2022-08-25T09:46:00Z</time>
      </trkpt>
      <trkpt lat="45.0833" lon="1.03935">
        <ele>245.6</ele>
        <time>2022-08-25T09:46:04Z</time>
      </trkpt>
      <trkpt lat="45.08324" lon="1.03908">
        <ele>243.8</ele>
        <time>2022-08-25T09:46:07Z</time>
      </trkpt>
      <trkpt lat="45.08319" lon="1.03891">
        <ele>242.4</ele>
        <time>2022-08-25T09:46:09Z</time>
      </trkpt>
      <trkpt lat="45.08315" lon="1.03873">
        <ele>241.2</ele>
        <time>2022-08-25T09:46:11Z</time>
      </trkpt>
      <trkpt lat="45.0831" lon="1.03853">
        <ele>240</ele>
        <time>2022-08-25T09:46:14Z</time>
      </trkpt>
      <trkpt lat="45.08301" lon="1.03827">
        <ele>239</ele>
        <time>2022-08-25T09:46:19Z</time>
      </trkpt>
      <trkpt lat="45.08298" lon="1.03821">
        <ele>238.8</ele>
        <time>2022-08-25T09:46:20Z</time>
      </trkpt>
      <trkpt lat="45.08286" lon="1.03796">
        <ele>238.4</ele>
        <time>2022-08-25T09:46:24Z</time>
      </trkpt>
      <trkpt lat="45.08279" lon="1.03786">
        <ele>237.8</ele>
        <time>2022-08-25T09:46:26Z</time>
      </trkpt>
      <trkpt lat="45.08269" lon="1.03772">
        <ele>237.6</ele>
        <time>2022-08-25T09:46:29Z</time>
      </trkpt>
      <trkpt lat="45.08218" lon="1.03737">
        <ele>238.2</ele>
        <time>2022-08-25T09:46:44Z</time>
      </trkpt>
      <trkpt lat="45.08201" lon="1.03721">
        <ele>239</ele>
        <time>2022-08-25T09:46:50Z</time>
      </trkpt>
      <trkpt lat="45.08158" lon="1.03671">
        <ele>239.6</ele>
        <time>2022-08-25T09:47:10Z</time>
      </trkpt>
      <trkpt lat="45.08115" lon="1.0362">
        <ele>239.6</ele>
        <time>2022-08-25T09:47:31Z</time>
      </trkpt>
      <trkpt lat="45.08071" lon="1.03575">
        <ele>239.2</ele>
        <time>2022-08-25T09:47:47Z</time>
      </trkpt>
      <trkpt lat="45.08037" lon="1.03554">
        <ele>238</ele>
        <time>2022-08-25T09:47:58Z</time>
      </trkpt>
      <trkpt lat="45.08033" lon="1.03552">
        <ele>237.8</ele>
        <time>2022-08-25T09:47:59Z</time>
      </trkpt>
      <trkpt lat="45.07984" lon="1.03514">
        <ele>237.6</ele>
        <time>2022-08-25T09:48:11Z</time>
      </trkpt>
      <trkpt lat="45.07935" lon="1.03474">
        <ele>237.2</ele>
        <time>2022-08-25T09:48:28Z</time>
      </trkpt>
      <trkpt lat="45.07923" lon="1.03468">
        <ele>236.8</ele>
        <time>2022-08-25T09:48:31Z</time>
      </trkpt>
      <trkpt lat="45.07868" lon="1.03446">
        <ele>237.2</ele>
        <time>2022-08-25T09:48:48Z</time>
      </trkpt>
      <trkpt lat="45.07811" lon="1.03435">
        <ele>236.6</ele>
        <time>2022-08-25T09:49:05Z</time>
      </trkpt>
      <trkpt lat="45.0778" lon="1.03433">
        <ele>235.6</ele>
        <time>2022-08-25T09:49:11Z</time>
      </trkpt>
      <trkpt lat="45.0776" lon="1.03434">
        <ele>233.8</ele>
        <time>2022-08-25T09:49:14Z</time>
      </trkpt>
      <trkpt lat="45.07739" lon="1.03438">
        <ele>232.6</ele>
        <time>2022-08-25T09:49:17Z</time>
      </trkpt>
      <trkpt lat="45.07682" lon="1.03447">
        <ele>231.6</ele>
        <time>2022-08-25T09:49:25Z</time>
      </trkpt>
      <trkpt lat="45.07653" lon="1.03447">
        <ele>231.2</ele>
        <time>2022-08-25T09:49:29Z</time>
      </trkpt>
      <trkpt lat="45.07597" lon="1.03432">
        <ele>230.4</ele>
        <time>2022-08-25T09:49:39Z</time>
      </trkpt>
      <trkpt lat="45.07543" lon="1.03411">
        <ele>232.2</ele>
        <time>2022-08-25T09:49:59Z</time>
      </trkpt>
      <trkpt lat="45.07512" lon="1.03412">
        <ele>232.4</ele>
        <time>2022-08-25T09:51:32Z</time>
      </trkpt>
      <trkpt lat="45.07494" lon="1.03408">
        <ele>233.2</ele>
        <time>2022-08-25T09:51:40Z</time>
      </trkpt>
      <trkpt lat="45.07442" lon="1.03384">
        <ele>234.2</ele>
        <time>2022-08-25T09:52:03Z</time>
      </trkpt>
      <trkpt lat="45.07414" lon="1.03372">
        <ele>234.2</ele>
        <time>2022-08-25T09:52:16Z</time>
      </trkpt>
      <trkpt lat="45.07363" lon="1.03342">
        <ele>233.6</ele>
        <time>2022-08-25T09:52:32Z</time>
      </trkpt>
      <trkpt lat="45.07349" lon="1.03336">
        <ele>233</ele>
        <time>2022-08-25T09:52:36Z</time>
      </trkpt>
      <trkpt lat="45.07298" lon="1.03335">
        <ele>232.2</ele>
        <time>2022-08-25T09:52:49Z</time>
      </trkpt>
      <trkpt lat="45.07272" lon="1.0331">
        <ele>231</ele>
        <time>2022-08-25T09:52:57Z</time>
      </trkpt>
      <trkpt lat="45.07249" lon="1.03281">
        <ele>229.8</ele>
        <time>2022-08-25T09:53:04Z</time>
      </trkpt>
      <trkpt lat="45.07213" lon="1.03221">
        <ele>229.4</ele>
        <time>2022-08-25T09:53:16Z</time>
      </trkpt>
      <trkpt lat="45.07182" lon="1.03155">
        <ele>229.4</ele>
        <time>2022-08-25T09:53:31Z</time>
      </trkpt>
      <trkpt lat="45.07151" lon="1.03101">
        <ele>228.8</ele>
        <time>2022-08-25T09:53:45Z</time>
      </trkpt>
      <trkpt lat="45.07124" lon="1.03034">
        <ele>227.8</ele>
        <time>2022-08-25T09:54:01Z</time>
      </trkpt>
      <trkpt lat="45.07094" lon="1.03015">
        <ele>226.6</ele>
        <time>2022-08-25T09:54:09Z</time>
      </trkpt>
      <trkpt lat="45.07072" lon="1.03002">
        <ele>225.6</ele>
        <time>2022-08-25T09:54:14Z</time>
      </trkpt>
      <trkpt lat="45.07048" lon="1.02984">
        <ele>224.6</ele>
        <time>2022-08-25T09:54:19Z</time>
      </trkpt>
      <trkpt lat="45.06994" lon="1.02964">
        <ele>223.8</ele>
        <time>2022-08-25T09:54:29Z</time>
      </trkpt>
      <trkpt lat="45.0699" lon="1.02962">
        <ele>223.8</ele>
        <time>2022-08-25T09:54:30Z</time>
      </trkpt>
      <trkpt lat="45.06981" lon="1.02957">
        <ele>223.8</ele>
        <time>2022-08-25T09:54:32Z</time>
      </trkpt>
      <trkpt lat="45.0695" lon="1.02932">
        <ele>223.4</ele>
        <time>2022-08-25T09:54:41Z</time>
      </trkpt>
      <trkpt lat="45.06922" lon="1.02908">
        <ele>222.8</ele>
        <time>2022-08-25T09:54:49Z</time>
      </trkpt>
      <trkpt lat="45.06917" lon="1.02898">
        <ele>222.2</ele>
        <time>2022-08-25T09:54:51Z</time>
      </trkpt>
      <trkpt lat="45.06892" lon="1.02864">
        <ele>220.8</ele>
        <time>2022-08-25T09:54:59Z</time>
      </trkpt>
      <trkpt lat="45.06884" lon="1.02853">
        <ele>219.8</ele>
        <time>2022-08-25T09:55:01Z</time>
      </trkpt>
      <trkpt lat="45.0688" lon="1.02848">
        <ele>219.6</ele>
        <time>2022-08-25T09:55:02Z</time>
      </trkpt>
      <trkpt lat="45.06861" lon="1.02827">
        <ele>219</ele>
        <time>2022-08-25T09:55:06Z</time>
      </trkpt>
      <trkpt lat="45.06844" lon="1.02815">
        <ele>218.4</ele>
        <time>2022-08-25T09:55:09Z</time>
      </trkpt>
      <trkpt lat="45.06826" lon="1.02799">
        <ele>218</ele>
        <time>2022-08-25T09:55:13Z</time>
      </trkpt>
      <trkpt lat="45.06782" lon="1.02752">
        <ele>219.4</ele>
        <time>2022-08-25T09:55:24Z</time>
      </trkpt>
      <trkpt lat="45.06779" lon="1.02748">
        <ele>219.8</ele>
        <time>2022-08-25T09:55:25Z</time>
      </trkpt>
      <trkpt lat="45.06768" lon="1.02741">
        <ele>218.6</ele>
        <time>2022-08-25T09:55:28Z</time>
      </trkpt>
      <trkpt lat="45.06729" lon="1.02727">
        <ele>217.4</ele>
        <time>2022-08-25T09:55:38Z</time>
      </trkpt>
      <trkpt lat="45.06711" lon="1.02725">
        <ele>217.6</ele>
        <time>2022-08-25T09:55:42Z</time>
      </trkpt>
      <trkpt lat="45.06692" lon="1.02722">
        <ele>217</ele>
        <time>2022-08-25T09:55:46Z</time>
      </trkpt>
      <trkpt lat="45.06683" lon="1.02725">
        <ele>216.8</ele>
        <time>2022-08-25T09:55:48Z</time>
      </trkpt>
      <trkpt lat="45.06663" lon="1.02734">
        <ele>216.8</ele>
        <time>2022-08-25T09:55:52Z</time>
      </trkpt>
      <trkpt lat="45.06637" lon="1.02741">
        <ele>216.2</ele>
        <time>2022-08-25T09:55:57Z</time>
      </trkpt>
      <trkpt lat="45.06602" lon="1.02751">
        <ele>215</ele>
        <time>2022-08-25T09:56:03Z</time>
      </trkpt>
      <trkpt lat="45.06574" lon="1.02759">
        <ele>213.8</ele>
        <time>2022-08-25T09:56:07Z</time>
      </trkpt>
      <trkpt lat="45.06562" lon="1.02769">
        <ele>213.8</ele>
        <time>2022-08-25T09:56:09Z</time>
      </trkpt>
      <trkpt lat="45.06538" lon="1.0279">
        <ele>213.4</ele>
        <time>2022-08-25T09:56:13Z</time>
      </trkpt>
      <trkpt lat="45.06524" lon="1.02791">
        <ele>213</ele>
        <time>2022-08-25T09:56:15Z</time>
      </trkpt>
      <trkpt lat="45.0651" lon="1.02789">
        <ele>212.6</ele>
        <time>2022-08-25T09:56:17Z</time>
      </trkpt>
      <trkpt lat="45.0647" lon="1.02782">
        <ele>211.2</ele>
        <time>2022-08-25T09:56:23Z</time>
      </trkpt>
      <trkpt lat="45.06464" lon="1.0278">
        <ele>211.4</ele>
        <time>2022-08-25T09:56:24Z</time>
      </trkpt>
      <trkpt lat="45.06407" lon="1.02749">
        <ele>210</ele>
        <time>2022-08-25T09:56:33Z</time>
      </trkpt>
      <trkpt lat="45.06395" lon="1.02742">
        <ele>209</ele>
        <time>2022-08-25T09:56:35Z</time>
      </trkpt>
      <trkpt lat="45.06384" lon="1.02738">
        <ele>208</ele>
        <time>2022-08-25T09:56:37Z</time>
      </trkpt>
      <trkpt lat="45.06378" lon="1.02739">
        <ele>207.4</ele>
        <time>2022-08-25T09:56:38Z</time>
      </trkpt>
      <trkpt lat="45.06367" lon="1.02742">
        <ele>206.8</ele>
        <time>2022-08-25T09:56:40Z</time>
      </trkpt>
      <trkpt lat="45.06352" lon="1.02751">
        <ele>207.2</ele>
        <time>2022-08-25T09:56:43Z</time>
      </trkpt>
      <trkpt lat="45.06338" lon="1.02758">
        <ele>207.6</ele>
        <time>2022-08-25T09:56:46Z</time>
      </trkpt>
      <trkpt lat="45.06281" lon="1.02756">
        <ele>207.2</ele>
        <time>2022-08-25T09:56:57Z</time>
      </trkpt>
      <trkpt lat="45.06258" lon="1.02749">
        <ele>208</ele>
        <time>2022-08-25T09:57:02Z</time>
      </trkpt>
      <trkpt lat="45.0625" lon="1.02749">
        <ele>208.2</ele>
        <time>2022-08-25T09:57:04Z</time>
      </trkpt>
      <trkpt lat="45.06235" lon="1.02748">
        <ele>209.6</ele>
        <time>2022-08-25T09:57:08Z</time>
      </trkpt>
      <trkpt lat="45.06201" lon="1.02749">
        <ele>210.6</ele>
        <time>2022-08-25T09:57:23Z</time>
      </trkpt>
      <trkpt lat="45.06148" lon="1.02763">
        <ele>211</ele>
        <time>2022-08-25T09:57:45Z</time>
      </trkpt>
      <trkpt lat="45.06097" lon="1.02784">
        <ele>209.6</ele>
        <time>2022-08-25T09:58:03Z</time>
      </trkpt>
      <trkpt lat="45.06048" lon="1.02823">
        <ele>209.8</ele>
        <time>2022-08-25T09:58:20Z</time>
      </trkpt>
      <trkpt lat="45.05999" lon="1.02859">
        <ele>210.2</ele>
        <time>2022-08-25T09:58:39Z</time>
      </trkpt>
      <trkpt lat="45.05966" lon="1.02871">
        <ele>210.6</ele>
        <time>2022-08-25T09:58:51Z</time>
      </trkpt>
      <trkpt lat="45.05948" lon="1.02873">
        <ele>210.8</ele>
        <time>2022-08-25T09:58:57Z</time>
      </trkpt>
      <trkpt lat="45.05942" lon="1.02874">
        <ele>210.8</ele>
        <time>2022-08-25T09:59:25Z</time>
      </trkpt>
      <trkpt lat="45.05887" lon="1.02882">
        <ele>210.6</ele>
        <time>2022-08-25T09:59:45Z</time>
      </trkpt>
      <trkpt lat="45.05855" lon="1.02882">
        <ele>209.6</ele>
        <time>2022-08-25T10:00:54Z</time>
      </trkpt>
      <trkpt lat="45.05853" lon="1.02881">
        <ele>209.6</ele>
        <time>2022-08-25T10:00:55Z</time>
      </trkpt>
      <trkpt lat="45.05829" lon="1.02878">
        <ele>208.4</ele>
        <time>2022-08-25T10:01:02Z</time>
      </trkpt>
      <trkpt lat="45.05809" lon="1.02876">
        <ele>207.4</ele>
        <time>2022-08-25T10:01:06Z</time>
      </trkpt>
      <trkpt lat="45.05793" lon="1.02877">
        <ele>206.2</ele>
        <time>2022-08-25T10:01:09Z</time>
      </trkpt>
      <trkpt lat="45.05776" lon="1.02878">
        <ele>205</ele>
        <time>2022-08-25T10:01:13Z</time>
      </trkpt>
      <trkpt lat="45.05763" lon="1.0288">
        <ele>203.8</ele>
        <time>2022-08-25T10:01:16Z</time>
      </trkpt>
      <trkpt lat="45.05758" lon="1.02881">
        <ele>203.6</ele>
        <time>2022-08-25T10:01:17Z</time>
      </trkpt>
      <trkpt lat="45.05743" lon="1.02883">
        <ele>202.6</ele>
        <time>2022-08-25T10:01:20Z</time>
      </trkpt>
      <trkpt lat="45.05728" lon="1.02883">
        <ele>201.4</ele>
        <time>2022-08-25T10:01:23Z</time>
      </trkpt>
      <trkpt lat="45.05723" lon="1.02882">
        <ele>201.2</ele>
        <time>2022-08-25T10:01:24Z</time>
      </trkpt>
      <trkpt lat="45.05709" lon="1.02881">
        <ele>200.4</ele>
        <time>2022-08-25T10:01:27Z</time>
      </trkpt>
      <trkpt lat="45.05695" lon="1.02883">
        <ele>199.2</ele>
        <time>2022-08-25T10:01:30Z</time>
      </trkpt>
      <trkpt lat="45.05679" lon="1.02885">
        <ele>198.2</ele>
        <time>2022-08-25T10:01:33Z</time>
      </trkpt>
      <trkpt lat="45.05666" lon="1.02885">
        <ele>196.8</ele>
        <time>2022-08-25T10:01:36Z</time>
      </trkpt>
      <trkpt lat="45.05653" lon="1.02883">
        <ele>195.6</ele>
        <time>2022-08-25T10:01:39Z</time>
      </trkpt>
      <trkpt lat="45.05635" lon="1.02884">
        <ele>194.4</ele>
        <time>2022-08-25T10:01:43Z</time>
      </trkpt>
      <trkpt lat="45.0562" lon="1.0289">
        <ele>193.2</ele>
        <time>2022-08-25T10:01:46Z</time>
      </trkpt>
      <trkpt lat="45.0559" lon="1.02894">
        <ele>192</ele>
        <time>2022-08-25T10:01:52Z</time>
      </trkpt>
      <trkpt lat="45.05581" lon="1.02896">
        <ele>191.6</ele>
        <time>2022-08-25T10:01:54Z</time>
      </trkpt>
      <trkpt lat="45.05571" lon="1.02897">
        <ele>191.2</ele>
        <time>2022-08-25T10:01:56Z</time>
      </trkpt>
      <trkpt lat="45.0556" lon="1.02896">
        <ele>191</ele>
        <time>2022-08-25T10:01:58Z</time>
      </trkpt>
      <trkpt lat="45.05506" lon="1.02894">
        <ele>190.6</ele>
        <time>2022-08-25T10:02:09Z</time>
      </trkpt>
      <trkpt lat="45.05472" lon="1.02891">
        <ele>189.8</ele>
        <time>2022-08-25T10:02:17Z</time>
      </trkpt>
      <trkpt lat="45.05457" lon="1.02892">
        <ele>189.2</ele>
        <time>2022-08-25T10:02:20Z</time>
      </trkpt>
      <trkpt lat="45.05447" lon="1.02888">
        <ele>189.2</ele>
        <time>2022-08-25T10:02:22Z</time>
      </trkpt>
      <trkpt lat="45.05443" lon="1.02886">
        <ele>188.8</ele>
        <time>2022-08-25T10:02:23Z</time>
      </trkpt>
      <trkpt lat="45.05429" lon="1.02884">
        <ele>187.4</ele>
        <time>2022-08-25T10:02:26Z</time>
      </trkpt>
      <trkpt lat="45.05413" lon="1.02885">
        <ele>186.4</ele>
        <time>2022-08-25T10:02:29Z</time>
      </trkpt>
      <trkpt lat="45.05396" lon="1.02884">
        <ele>185.2</ele>
        <time>2022-08-25T10:02:32Z</time>
      </trkpt>
      <trkpt lat="45.05384" lon="1.02884">
        <ele>184</ele>
        <time>2022-08-25T10:02:34Z</time>
      </trkpt>
      <trkpt lat="45.05378" lon="1.02885">
        <ele>183.4</ele>
        <time>2022-08-25T10:02:35Z</time>
      </trkpt>
      <trkpt lat="45.05372" lon="1.02886">
        <ele>183</ele>
        <time>2022-08-25T10:02:36Z</time>
      </trkpt>
      <trkpt lat="45.05361" lon="1.02888">
        <ele>181.8</ele>
        <time>2022-08-25T10:02:38Z</time>
      </trkpt>
      <trkpt lat="45.05357" lon="1.02888">
        <ele>181.4</ele>
        <time>2022-08-25T10:02:39Z</time>
      </trkpt>
      <trkpt lat="45.05352" lon="1.02889">
        <ele>180.8</ele>
        <time>2022-08-25T10:02:40Z</time>
      </trkpt>
      <trkpt lat="45.05342" lon="1.0289">
        <ele>179.8</ele>
        <time>2022-08-25T10:02:42Z</time>
      </trkpt>
      <trkpt lat="45.05332" lon="1.0289">
        <ele>178.2</ele>
        <time>2022-08-25T10:02:44Z</time>
      </trkpt>
      <trkpt lat="45.05322" lon="1.02891">
        <ele>176.8</ele>
        <time>2022-08-25T10:02:46Z</time>
      </trkpt>
      <trkpt lat="45.05312" lon="1.02894">
        <ele>175.2</ele>
        <time>2022-08-25T10:02:48Z</time>
      </trkpt>
      <trkpt lat="45.05303" lon="1.02896">
        <ele>173.6</ele>
        <time>2022-08-25T10:02:50Z</time>
      </trkpt>
      <trkpt lat="45.05294" lon="1.02897">
        <ele>172.4</ele>
        <time>2022-08-25T10:02:52Z</time>
      </trkpt>
      <trkpt lat="45.05279" lon="1.02899">
        <ele>170.8</ele>
        <time>2022-08-25T10:02:55Z</time>
      </trkpt>
      <trkpt lat="45.05264" lon="1.02901">
        <ele>169.4</ele>
        <time>2022-08-25T10:02:58Z</time>
      </trkpt>
      <trkpt lat="45.05255" lon="1.02902">
        <ele>168.4</ele>
        <time>2022-08-25T10:03:00Z</time>
      </trkpt>
      <trkpt lat="45.05234" lon="1.02902">
        <ele>167.2</ele>
        <time>2022-08-25T10:03:04Z</time>
      </trkpt>
      <trkpt lat="45.05223" lon="1.02903">
        <ele>166</ele>
        <time>2022-08-25T10:03:06Z</time>
      </trkpt>
      <trkpt lat="45.05206" lon="1.02902">
        <ele>164.6</ele>
        <time>2022-08-25T10:03:09Z</time>
      </trkpt>
      <trkpt lat="45.05189" lon="1.02901">
        <ele>163.2</ele>
        <time>2022-08-25T10:03:12Z</time>
      </trkpt>
      <trkpt lat="45.05167" lon="1.02901">
        <ele>161.8</ele>
        <time>2022-08-25T10:03:16Z</time>
      </trkpt>
      <trkpt lat="45.05152" lon="1.029">
        <ele>161.2</ele>
        <time>2022-08-25T10:03:19Z</time>
      </trkpt>
      <trkpt lat="45.05147" lon="1.029">
        <ele>160.8</ele>
        <time>2022-08-25T10:03:20Z</time>
      </trkpt>
      <trkpt lat="45.05122" lon="1.02905">
        <ele>159.6</ele>
        <time>2022-08-25T10:03:24Z</time>
      </trkpt>
      <trkpt lat="45.05097" lon="1.02909">
        <ele>158.4</ele>
        <time>2022-08-25T10:03:28Z</time>
      </trkpt>
      <trkpt lat="45.05079" lon="1.0291">
        <ele>157.4</ele>
        <time>2022-08-25T10:03:31Z</time>
      </trkpt>
      <trkpt lat="45.05052" lon="1.02909">
        <ele>156.4</ele>
        <time>2022-08-25T10:03:36Z</time>
      </trkpt>
      <trkpt lat="45.05043" lon="1.02911">
        <ele>155.8</ele>
        <time>2022-08-25T10:03:38Z</time>
      </trkpt>
      <trkpt lat="45.05027" lon="1.02919">
        <ele>154.6</ele>
        <time>2022-08-25T10:03:41Z</time>
      </trkpt>
      <trkpt lat="45.0501" lon="1.02923">
        <ele>153.4</ele>
        <time>2022-08-25T10:03:44Z</time>
      </trkpt>
      <trkpt lat="45.04992" lon="1.02925">
        <ele>152</ele>
        <time>2022-08-25T10:03:47Z</time>
      </trkpt>
      <trkpt lat="45.04974" lon="1.02928">
        <ele>150.8</ele>
        <time>2022-08-25T10:03:50Z</time>
      </trkpt>
      <trkpt lat="45.04956" lon="1.02933">
        <ele>149.2</ele>
        <time>2022-08-25T10:03:53Z</time>
      </trkpt>
      <trkpt lat="45.04938" lon="1.0294">
        <ele>147.6</ele>
        <time>2022-08-25T10:03:56Z</time>
      </trkpt>
      <trkpt lat="45.04922" lon="1.02944">
        <ele>146</ele>
        <time>2022-08-25T10:03:59Z</time>
      </trkpt>
      <trkpt lat="45.04912" lon="1.02947">
        <ele>144.8</ele>
        <time>2022-08-25T10:04:01Z</time>
      </trkpt>
      <trkpt lat="45.04902" lon="1.02952">
        <ele>143.8</ele>
        <time>2022-08-25T10:04:03Z</time>
      </trkpt>
      <trkpt lat="45.04892" lon="1.02955">
        <ele>142.4</ele>
        <time>2022-08-25T10:04:05Z</time>
      </trkpt>
      <trkpt lat="45.04884" lon="1.02957">
        <ele>141.4</ele>
        <time>2022-08-25T10:04:07Z</time>
      </trkpt>
      <trkpt lat="45.04872" lon="1.02959">
        <ele>140.2</ele>
        <time>2022-08-25T10:04:10Z</time>
      </trkpt>
      <trkpt lat="45.04861" lon="1.02961">
        <ele>139</ele>
        <time>2022-08-25T10:04:13Z</time>
      </trkpt>
      <trkpt lat="45.0485" lon="1.02963">
        <ele>137.4</ele>
        <time>2022-08-25T10:04:16Z</time>
      </trkpt>
      <trkpt lat="45.04839" lon="1.02962">
        <ele>136</ele>
        <time>2022-08-25T10:04:19Z</time>
      </trkpt>
      <trkpt lat="45.04832" lon="1.02961">
        <ele>135</ele>
        <time>2022-08-25T10:04:21Z</time>
      </trkpt>
      <trkpt lat="45.0482" lon="1.0296">
        <ele>133.2</ele>
        <time>2022-08-25T10:04:24Z</time>
      </trkpt>
      <trkpt lat="45.0481" lon="1.02959">
        <ele>132.4</ele>
        <time>2022-08-25T10:04:26Z</time>
      </trkpt>
      <trkpt lat="45.04805" lon="1.02957">
        <ele>131.8</ele>
        <time>2022-08-25T10:04:27Z</time>
      </trkpt>
      <trkpt lat="45.04795" lon="1.02954">
        <ele>130.8</ele>
        <time>2022-08-25T10:04:29Z</time>
      </trkpt>
      <trkpt lat="45.04787" lon="1.02952">
        <ele>129.6</ele>
        <time>2022-08-25T10:04:31Z</time>
      </trkpt>
      <trkpt lat="45.0478" lon="1.02949">
        <ele>128.6</ele>
        <time>2022-08-25T10:04:33Z</time>
      </trkpt>
      <trkpt lat="45.04772" lon="1.02945">
        <ele>127</ele>
        <time>2022-08-25T10:04:36Z</time>
      </trkpt>
      <trkpt lat="45.04768" lon="1.02938">
        <ele>125.8</ele>
        <time>2022-08-25T10:04:39Z</time>
      </trkpt>
      <trkpt lat="45.04764" lon="1.02932">
        <ele>124.4</ele>
        <time>2022-08-25T10:04:43Z</time>
      </trkpt>
      <trkpt lat="45.04761" lon="1.02928">
        <ele>123.6</ele>
        <time>2022-08-25T10:04:46Z</time>
      </trkpt>
      <trkpt lat="45.04757" lon="1.02927">
        <ele>122.4</ele>
        <time>2022-08-25T10:04:48Z</time>
      </trkpt>
      <trkpt lat="45.04753" lon="1.02928">
        <ele>120.8</ele>
        <time>2022-08-25T10:04:50Z</time>
      </trkpt>
      <trkpt lat="45.04748" lon="1.0293">
        <ele>119.6</ele>
        <time>2022-08-25T10:04:52Z</time>
      </trkpt>
      <trkpt lat="45.0474" lon="1.02934">
        <ele>118.2</ele>
        <time>2022-08-25T10:04:55Z</time>
      </trkpt>
      <trkpt lat="45.04736" lon="1.02934">
        <ele>117.2</ele>
        <time>2022-08-25T10:04:57Z</time>
      </trkpt>
      <trkpt lat="45.04732" lon="1.02935">
        <ele>115.8</ele>
        <time>2022-08-25T10:04:59Z</time>
      </trkpt>
      <trkpt lat="45.04729" lon="1.02937">
        <ele>115</ele>
        <time>2022-08-25T10:05:21Z</time>
      </trkpt>
      <trkpt lat="45.04727" lon="1.02938">
        <ele>114.6</ele>
        <time>2022-08-25T10:05:22Z</time>
      </trkpt>
      <trkpt lat="45.04722" lon="1.02944">
        <ele>113.4</ele>
        <time>2022-08-25T10:05:24Z</time>
      </trkpt>
      <trkpt lat="45.04713" lon="1.02951">
        <ele>111.2</ele>
        <time>2022-08-25T10:05:26Z</time>
      </trkpt>
      <trkpt lat="45.04709" lon="1.02955">
        <ele>110</ele>
        <time>2022-08-25T10:05:27Z</time>
      </trkpt>
      <trkpt lat="45.047" lon="1.02966">
        <ele>108.2</ele>
        <time>2022-08-25T10:05:29Z</time>
      </trkpt>
      <trkpt lat="45.04693" lon="1.02984">
        <ele>106.8</ele>
        <time>2022-08-25T10:05:31Z</time>
      </trkpt>
      <trkpt lat="45.0469" lon="1.03007">
        <ele>106</ele>
        <time>2022-08-25T10:05:33Z</time>
      </trkpt>
      <trkpt lat="45.0469" lon="1.0303">
        <ele>105.6</ele>
        <time>2022-08-25T10:05:35Z</time>
      </trkpt>
      <trkpt lat="45.04691" lon="1.03071">
        <ele>105.8</ele>
        <time>2022-08-25T10:05:39Z</time>
      </trkpt>
      <trkpt lat="45.04688" lon="1.0309">
        <ele>105.2</ele>
        <time>2022-08-25T10:05:41Z</time>
      </trkpt>
      <trkpt lat="45.04682" lon="1.03105">
        <ele>104.8</ele>
        <time>2022-08-25T10:05:43Z</time>
      </trkpt>
      <trkpt lat="45.04676" lon="1.03116">
        <ele>105</ele>
        <time>2022-08-25T10:05:45Z</time>
      </trkpt>
      <trkpt lat="45.04652" lon="1.03135">
        <ele>106.6</ele>
        <time>2022-08-25T10:05:54Z</time>
      </trkpt>
      <trkpt lat="45.0463" lon="1.03143">
        <ele>107</ele>
        <time>2022-08-25T10:06:07Z</time>
      </trkpt>
      <trkpt lat="45.04629" lon="1.03149">
        <ele>107.2</ele>
        <time>2022-08-25T10:06:09Z</time>
      </trkpt>
      <trkpt lat="45.04626" lon="1.03154">
        <ele>107.8</ele>
        <time>2022-08-25T10:06:13Z</time>
      </trkpt>
      <trkpt lat="45.04616" lon="1.03163">
        <ele>108.8</ele>
        <time>2022-08-25T10:06:30Z</time>
      </trkpt>
      <trkpt lat="45.04617" lon="1.03164">
        <ele>109</ele>
        <time>2022-08-25T10:06:32Z</time>
      </trkpt>
      <trkpt lat="45.0462" lon="1.03165">
        <ele>109.4</ele>
        <time>2022-08-25T10:06:35Z</time>
      </trkpt>
      <trkpt lat="45.04626" lon="1.03169">
        <ele>110</ele>
        <time>2022-08-25T10:06:40Z</time>
      </trkpt>
      <trkpt lat="45.04629" lon="1.03171">
        <ele>110</ele>
        <time>2022-08-25T10:06:59Z</time>
      </trkpt>
      <trkpt lat="45.04614" lon="1.03156">
        <ele>108.6</ele>
        <time>2022-08-25T10:07:07Z</time>
      </trkpt>
      <trkpt lat="45.04621" lon="1.03149">
        <ele>107.6</ele>
        <time>2022-08-25T10:07:11Z</time>
      </trkpt>
      <trkpt lat="45.04653" lon="1.03172">
        <ele>108.8</ele>
        <time>2022-08-25T10:07:27Z</time>
      </trkpt>
      <trkpt lat="45.04683" lon="1.03189">
        <ele>109.8</ele>
        <time>2022-08-25T10:07:40Z</time>
      </trkpt>
      <trkpt lat="45.04688" lon="1.03198">
        <ele>111</ele>
        <time>2022-08-25T10:07:46Z</time>
      </trkpt>
      <trkpt lat="45.04691" lon="1.03203">
        <ele>112.2</ele>
        <time>2022-08-25T10:07:50Z</time>
      </trkpt>
      <trkpt lat="45.04695" lon="1.03209">
        <ele>113.4</ele>
        <time>2022-08-25T10:07:55Z</time>
      </trkpt>
      <trkpt lat="45.04696" lon="1.03215">
        <ele>114.4</ele>
        <time>2022-08-25T10:07:59Z</time>
      </trkpt>
      <trkpt lat="45.04698" lon="1.03216">
        <ele>115.4</ele>
        <time>2022-08-25T10:08:22Z</time>
      </trkpt>
      <trkpt lat="45.04698" lon="1.03218">
        <ele>117.6</ele>
        <time>2022-08-25T10:08:32Z</time>
      </trkpt>
      <trkpt lat="45.047" lon="1.0322">
        <ele>118.6</ele>
        <time>2022-08-25T10:08:39Z</time>
      </trkpt>
      <trkpt lat="45.04703" lon="1.03224">
        <ele>121.2</ele>
        <time>2022-08-25T10:09:05Z</time>
      </trkpt>
      <trkpt lat="45.04704" lon="1.03226">
        <ele>122</ele>
        <time>2022-08-25T10:09:11Z</time>
      </trkpt>
      <trkpt lat="45.04704" lon="1.03228">
        <ele>123.4</ele>
        <time>2022-08-25T10:09:18Z</time>
      </trkpt>
      <trkpt lat="45.04706" lon="1.0323">
        <ele>124.4</ele>
        <time>2022-08-25T10:09:26Z</time>
      </trkpt>
      <trkpt lat="45.04707" lon="1.03232">
        <ele>125.4</ele>
        <time>2022-08-25T10:09:33Z</time>
      </trkpt>
      <trkpt lat="45.04708" lon="1.03233">
        <ele>126.2</ele>
        <time>2022-08-25T10:09:39Z</time>
      </trkpt>
      <trkpt lat="45.04708" lon="1.03235">
        <ele>127.4</ele>
        <time>2022-08-25T10:09:44Z</time>
      </trkpt>
      <trkpt lat="45.04709" lon="1.03235">
        <ele>128.6</ele>
        <time>2022-08-25T10:10:02Z</time>
      </trkpt>
      <trkpt lat="45.0471" lon="1.03236">
        <ele>129.6</ele>
        <time>2022-08-25T10:10:09Z</time>
      </trkpt>
      <trkpt lat="45.04712" lon="1.03237">
        <ele>130.6</ele>
        <time>2022-08-25T10:10:18Z</time>
      </trkpt>
      <trkpt lat="45.04712" lon="1.03238">
        <ele>131.8</ele>
        <time>2022-08-25T10:10:25Z</time>
      </trkpt>
      <trkpt lat="45.04713" lon="1.03239">
        <ele>133</ele>
        <time>2022-08-25T10:10:32Z</time>
      </trkpt>
      <trkpt lat="45.04713" lon="1.03242">
        <ele>134.2</ele>
        <time>2022-08-25T10:10:40Z</time>
      </trkpt>
      <trkpt lat="45.04714" lon="1.03243">
        <ele>135.2</ele>
        <time>2022-08-25T10:10:46Z</time>
      </trkpt>
      <trkpt lat="45.04714" lon="1.03245">
        <ele>136</ele>
        <time>2022-08-25T10:10:51Z</time>
      </trkpt>
      <trkpt lat="45.04714" lon="1.03246">
        <ele>138.4</ele>
        <time>2022-08-25T10:11:03Z</time>
      </trkpt>
      <trkpt lat="45.04714" lon="1.03247">
        <ele>139.6</ele>
        <time>2022-08-25T10:11:19Z</time>
      </trkpt>
      <trkpt lat="45.04737" lon="1.03292">
        <ele>140.8</ele>
        <time>2022-08-25T10:11:24Z</time>
      </trkpt>
      <trkpt lat="45.04761" lon="1.03341">
        <ele>141.8</ele>
        <time>2022-08-25T10:11:29Z</time>
      </trkpt>
      <trkpt lat="45.0478" lon="1.03368">
        <ele>142.8</ele>
        <time>2022-08-25T10:11:45Z</time>
      </trkpt>
      <trkpt lat="45.04782" lon="1.03373">
        <ele>144</ele>
        <time>2022-08-25T10:11:52Z</time>
      </trkpt>
      <trkpt lat="45.04786" lon="1.03379">
        <ele>145.2</ele>
        <time>2022-08-25T10:11:59Z</time>
      </trkpt>
      <trkpt lat="45.04789" lon="1.03387">
        <ele>146.2</ele>
        <time>2022-08-25T10:12:06Z</time>
      </trkpt>
      <trkpt lat="45.04794" lon="1.03394">
        <ele>147.2</ele>
        <time>2022-08-25T10:12:12Z</time>
      </trkpt>
      <trkpt lat="45.04798" lon="1.03401">
        <ele>148.4</ele>
        <time>2022-08-25T10:12:20Z</time>
      </trkpt>
      <trkpt lat="45.04802" lon="1.03406">
        <ele>149.4</ele>
        <time>2022-08-25T10:12:26Z</time>
      </trkpt>
      <trkpt lat="45.04806" lon="1.03414">
        <ele>150.4</ele>
        <time>2022-08-25T10:12:37Z</time>
      </trkpt>
      <trkpt lat="45.04809" lon="1.03418">
        <ele>151.6</ele>
        <time>2022-08-25T10:12:43Z</time>
      </trkpt>
      <trkpt lat="45.04812" lon="1.03425">
        <ele>152.8</ele>
        <time>2022-08-25T10:12:51Z</time>
      </trkpt>
      <trkpt lat="45.04816" lon="1.0343">
        <ele>153.8</ele>
        <time>2022-08-25T10:12:58Z</time>
      </trkpt>
      <trkpt lat="45.04819" lon="1.03435">
        <ele>155</ele>
        <time>2022-08-25T10:13:07Z</time>
      </trkpt>
      <trkpt lat="45.04823" lon="1.03441">
        <ele>156.2</ele>
        <time>2022-08-25T10:13:17Z</time>
      </trkpt>
      <trkpt lat="45.04826" lon="1.03447">
        <ele>157</ele>
        <time>2022-08-25T10:13:25Z</time>
      </trkpt>
      <trkpt lat="45.04828" lon="1.03452">
        <ele>158.4</ele>
        <time>2022-08-25T10:13:34Z</time>
      </trkpt>
      <trkpt lat="45.0483" lon="1.03457">
        <ele>159.6</ele>
        <time>2022-08-25T10:13:40Z</time>
      </trkpt>
      <trkpt lat="45.04833" lon="1.03462">
        <ele>160.6</ele>
        <time>2022-08-25T10:13:46Z</time>
      </trkpt>
      <trkpt lat="45.04837" lon="1.03468">
        <ele>161.8</ele>
        <time>2022-08-25T10:13:54Z</time>
      </trkpt>
      <trkpt lat="45.04841" lon="1.03472">
        <ele>162.6</ele>
        <time>2022-08-25T10:14:00Z</time>
      </trkpt>
      <trkpt lat="45.04845" lon="1.03477">
        <ele>163.6</ele>
        <time>2022-08-25T10:14:07Z</time>
      </trkpt>
      <trkpt lat="45.04847" lon="1.03482">
        <ele>164.8</ele>
        <time>2022-08-25T10:14:14Z</time>
      </trkpt>
      <trkpt lat="45.04847" lon="1.03485">
        <ele>166</ele>
        <time>2022-08-25T10:14:20Z</time>
      </trkpt>
      <trkpt lat="45.04851" lon="1.03495">
        <ele>167</ele>
        <time>2022-08-25T10:14:33Z</time>
      </trkpt>
      <trkpt lat="45.04857" lon="1.03504">
        <ele>168.2</ele>
        <time>2022-08-25T10:14:43Z</time>
      </trkpt>
      <trkpt lat="45.04861" lon="1.0351">
        <ele>169</ele>
        <time>2022-08-25T10:14:51Z</time>
      </trkpt>
      <trkpt lat="45.04864" lon="1.03519">
        <ele>170.4</ele>
        <time>2022-08-25T10:15:01Z</time>
      </trkpt>
      <trkpt lat="45.04865" lon="1.03525">
        <ele>171.4</ele>
        <time>2022-08-25T10:15:08Z</time>
      </trkpt>
      <trkpt lat="45.04868" lon="1.03531">
        <ele>172.6</ele>
        <time>2022-08-25T10:15:15Z</time>
      </trkpt>
      <trkpt lat="45.0487" lon="1.03537">
        <ele>173.6</ele>
        <time>2022-08-25T10:15:22Z</time>
      </trkpt>
      <trkpt lat="45.04872" lon="1.03539">
        <ele>174.6</ele>
        <time>2022-08-25T10:15:51Z</time>
      </trkpt>
      <trkpt lat="45.04874" lon="1.03547">
        <ele>175.6</ele>
        <time>2022-08-25T10:15:57Z</time>
      </trkpt>
      <trkpt lat="45.04874" lon="1.03548">
        <ele>175.8</ele>
        <time>2022-08-25T10:15:58Z</time>
      </trkpt>
      <trkpt lat="45.04875" lon="1.03553">
        <ele>176.8</ele>
        <time>2022-08-25T10:16:02Z</time>
      </trkpt>
      <trkpt lat="45.04875" lon="1.03561">
        <ele>177.8</ele>
        <time>2022-08-25T10:16:08Z</time>
      </trkpt>
      <trkpt lat="45.04876" lon="1.03568">
        <ele>179</ele>
        <time>2022-08-25T10:16:15Z</time>
      </trkpt>
      <trkpt lat="45.04877" lon="1.03576">
        <ele>180</ele>
        <time>2022-08-25T10:16:21Z</time>
      </trkpt>
      <trkpt lat="45.04879" lon="1.03586">
        <ele>181.2</ele>
        <time>2022-08-25T10:16:28Z</time>
      </trkpt>
      <trkpt lat="45.0488" lon="1.03593">
        <ele>182.2</ele>
        <time>2022-08-25T10:16:34Z</time>
      </trkpt>
      <trkpt lat="45.04881" lon="1.03601">
        <ele>183.2</ele>
        <time>2022-08-25T10:16:41Z</time>
      </trkpt>
      <trkpt lat="45.04882" lon="1.03608">
        <ele>184.4</ele>
        <time>2022-08-25T10:16:47Z</time>
      </trkpt>
      <trkpt lat="45.04883" lon="1.03614">
        <ele>185.6</ele>
        <time>2022-08-25T10:17:04Z</time>
      </trkpt>
      <trkpt lat="45.0488" lon="1.03623">
        <ele>186.4</ele>
        <time>2022-08-25T10:17:13Z</time>
      </trkpt>
      <trkpt lat="45.0488" lon="1.03626">
        <ele>187.2</ele>
        <time>2022-08-25T10:17:15Z</time>
      </trkpt>
      <trkpt lat="45.0488" lon="1.0363">
        <ele>187.6</ele>
        <time>2022-08-25T10:17:19Z</time>
      </trkpt>
      <trkpt lat="45.0488" lon="1.03637">
        <ele>188.6</ele>
        <time>2022-08-25T10:17:25Z</time>
      </trkpt>
      <trkpt lat="45.0488" lon="1.03645">
        <ele>190</ele>
        <time>2022-08-25T10:17:33Z</time>
      </trkpt>
      <trkpt lat="45.04879" lon="1.0365">
        <ele>191.2</ele>
        <time>2022-08-25T10:17:41Z</time>
      </trkpt>
      <trkpt lat="45.04877" lon="1.0366">
        <ele>192.2</ele>
        <time>2022-08-25T10:17:48Z</time>
      </trkpt>
      <trkpt lat="45.04876" lon="1.03666">
        <ele>193.2</ele>
        <time>2022-08-25T10:17:56Z</time>
      </trkpt>
      <trkpt lat="45.04874" lon="1.03671">
        <ele>194.2</ele>
        <time>2022-08-25T10:18:01Z</time>
      </trkpt>
      <trkpt lat="45.04869" lon="1.03678">
        <ele>195.6</ele>
        <time>2022-08-25T10:18:14Z</time>
      </trkpt>
      <trkpt lat="45.04867" lon="1.03681">
        <ele>196.4</ele>
        <time>2022-08-25T10:18:22Z</time>
      </trkpt>
      <trkpt lat="45.04865" lon="1.03686">
        <ele>197.8</ele>
        <time>2022-08-25T10:18:28Z</time>
      </trkpt>
      <trkpt lat="45.04864" lon="1.03695">
        <ele>198.8</ele>
        <time>2022-08-25T10:18:34Z</time>
      </trkpt>
      <trkpt lat="45.04862" lon="1.03701">
        <ele>199.8</ele>
        <time>2022-08-25T10:18:41Z</time>
      </trkpt>
      <trkpt lat="45.04859" lon="1.03707">
        <ele>201</ele>
        <time>2022-08-25T10:18:51Z</time>
      </trkpt>
      <trkpt lat="45.04857" lon="1.03715">
        <ele>202</ele>
        <time>2022-08-25T10:19:01Z</time>
      </trkpt>
      <trkpt lat="45.04855" lon="1.03722">
        <ele>203</ele>
        <time>2022-08-25T10:19:07Z</time>
      </trkpt>
      <trkpt lat="45.04853" lon="1.03729">
        <ele>204</ele>
        <time>2022-08-25T10:19:15Z</time>
      </trkpt>
      <trkpt lat="45.04847" lon="1.03741">
        <ele>205.2</ele>
        <time>2022-08-25T10:19:38Z</time>
      </trkpt>
      <trkpt lat="45.04846" lon="1.03742">
        <ele>205.4</ele>
        <time>2022-08-25T10:19:39Z</time>
      </trkpt>
      <trkpt lat="45.04843" lon="1.0375">
        <ele>206.2</ele>
        <time>2022-08-25T10:19:45Z</time>
      </trkpt>
      <trkpt lat="45.04837" lon="1.0376">
        <ele>207.6</ele>
        <time>2022-08-25T10:19:54Z</time>
      </trkpt>
      <trkpt lat="45.04833" lon="1.03774">
        <ele>208.6</ele>
        <time>2022-08-25T10:20:01Z</time>
      </trkpt>
      <trkpt lat="45.0483" lon="1.03788">
        <ele>209.4</ele>
        <time>2022-08-25T10:20:10Z</time>
      </trkpt>
      <trkpt lat="45.04827" lon="1.03791">
        <ele>209.8</ele>
        <time>2022-08-25T10:20:34Z</time>
      </trkpt>
      <trkpt lat="45.04824" lon="1.03794">
        <ele>210.6</ele>
        <time>2022-08-25T10:20:38Z</time>
      </trkpt>
      <trkpt lat="45.04823" lon="1.03801">
        <ele>211</ele>
        <time>2022-08-25T10:20:45Z</time>
      </trkpt>
      <trkpt lat="45.0482" lon="1.0382">
        <ele>211.8</ele>
        <time>2022-08-25T10:20:54Z</time>
      </trkpt>
      <trkpt lat="45.04818" lon="1.03833">
        <ele>212.8</ele>
        <time>2022-08-25T10:21:01Z</time>
      </trkpt>
      <trkpt lat="45.04812" lon="1.03857">
        <ele>213.8</ele>
        <time>2022-08-25T10:21:13Z</time>
      </trkpt>
      <trkpt lat="45.04807" lon="1.0388">
        <ele>215</ele>
        <time>2022-08-25T10:21:22Z</time>
      </trkpt>
      <trkpt lat="45.04798" lon="1.03918">
        <ele>216</ele>
        <time>2022-08-25T10:21:36Z</time>
      </trkpt>
      <trkpt lat="45.04779" lon="1.0399">
        <ele>216.6</ele>
        <time>2022-08-25T10:21:58Z</time>
      </trkpt>
      <trkpt lat="45.04773" lon="1.04007">
        <ele>216.6</ele>
        <time>2022-08-25T10:22:04Z</time>
      </trkpt>
      <trkpt lat="45.04748" lon="1.03992">
        <ele>217.2</ele>
        <time>2022-08-25T10:22:15Z</time>
      </trkpt>
      <trkpt lat="45.04698" lon="1.03996">
        <ele>217.6</ele>
        <time>2022-08-25T10:22:33Z</time>
      </trkpt>
      <trkpt lat="45.04656" lon="1.04014">
        <ele>218.2</ele>
        <time>2022-08-25T10:22:46Z</time>
      </trkpt>
      <trkpt lat="45.04625" lon="1.0403">
        <ele>217.2</ele>
        <time>2022-08-25T10:22:55Z</time>
      </trkpt>
      <trkpt lat="45.04599" lon="1.04048">
        <ele>215.8</ele>
        <time>2022-08-25T10:23:01Z</time>
      </trkpt>
      <trkpt lat="45.04569" lon="1.04065">
        <ele>214.8</ele>
        <time>2022-08-25T10:23:07Z</time>
      </trkpt>
      <trkpt lat="45.0453" lon="1.04085">
        <ele>213.6</ele>
        <time>2022-08-25T10:23:14Z</time>
      </trkpt>
      <trkpt lat="45.04478" lon="1.04124">
        <ele>211.6</ele>
        <time>2022-08-25T10:23:23Z</time>
      </trkpt>
      <trkpt lat="45.04466" lon="1.04133">
        <ele>210.6</ele>
        <time>2022-08-25T10:23:25Z</time>
      </trkpt>
      <trkpt lat="45.04418" lon="1.0417">
        <ele>211.4</ele>
        <time>2022-08-25T10:23:34Z</time>
      </trkpt>
      <trkpt lat="45.04413" lon="1.04174">
        <ele>211.6</ele>
        <time>2022-08-25T10:23:35Z</time>
      </trkpt>
      <trkpt lat="45.0436" lon="1.04206">
        <ele>211.8</ele>
        <time>2022-08-25T10:23:46Z</time>
      </trkpt>
      <trkpt lat="45.04309" lon="1.0424">
        <ele>211.2</ele>
        <time>2022-08-25T10:23:57Z</time>
      </trkpt>
      <trkpt lat="45.04266" lon="1.0428">
        <ele>210.4</ele>
        <time>2022-08-25T10:24:06Z</time>
      </trkpt>
      <trkpt lat="45.04249" lon="1.04292">
        <ele>209.4</ele>
        <time>2022-08-25T10:24:09Z</time>
      </trkpt>
      <trkpt lat="45.04197" lon="1.0433">
        <ele>208.2</ele>
        <time>2022-08-25T10:24:18Z</time>
      </trkpt>
      <trkpt lat="45.04185" lon="1.04331">
        <ele>208.4</ele>
        <time>2022-08-25T10:24:20Z</time>
      </trkpt>
      <trkpt lat="45.04139" lon="1.04318">
        <ele>207.4</ele>
        <time>2022-08-25T10:24:29Z</time>
      </trkpt>
      <trkpt lat="45.04134" lon="1.04317">
        <ele>207.2</ele>
        <time>2022-08-25T10:24:30Z</time>
      </trkpt>
      <trkpt lat="45.04118" lon="1.04318">
        <ele>207.2</ele>
        <time>2022-08-25T10:24:33Z</time>
      </trkpt>
      <trkpt lat="45.04087" lon="1.0433">
        <ele>207</ele>
        <time>2022-08-25T10:24:39Z</time>
      </trkpt>
      <trkpt lat="45.04077" lon="1.04337">
        <ele>206.4</ele>
        <time>2022-08-25T10:24:41Z</time>
      </trkpt>
      <trkpt lat="45.04073" lon="1.04342">
        <ele>206.4</ele>
        <time>2022-08-25T10:24:42Z</time>
      </trkpt>
      <trkpt lat="45.04066" lon="1.04356">
        <ele>206</ele>
        <time>2022-08-25T10:24:44Z</time>
      </trkpt>
      <trkpt lat="45.04056" lon="1.04386">
        <ele>205.2</ele>
        <time>2022-08-25T10:24:48Z</time>
      </trkpt>
      <trkpt lat="45.04053" lon="1.04393">
        <ele>204.8</ele>
        <time>2022-08-25T10:24:49Z</time>
      </trkpt>
      <trkpt lat="45.04045" lon="1.04402">
        <ele>204.6</ele>
        <time>2022-08-25T10:24:51Z</time>
      </trkpt>
      <trkpt lat="45.04035" lon="1.04404">
        <ele>204.2</ele>
        <time>2022-08-25T10:24:53Z</time>
      </trkpt>
      <trkpt lat="45.04012" lon="1.04402">
        <ele>203.2</ele>
        <time>2022-08-25T10:24:57Z</time>
      </trkpt>
      <trkpt lat="45.04" lon="1.04401">
        <ele>201.8</ele>
        <time>2022-08-25T10:24:59Z</time>
      </trkpt>
      <trkpt lat="45.03986" lon="1.04398">
        <ele>200.8</ele>
        <time>2022-08-25T10:25:02Z</time>
      </trkpt>
      <trkpt lat="45.03982" lon="1.04398">
        <ele>200.2</ele>
        <time>2022-08-25T10:25:03Z</time>
      </trkpt>
      <trkpt lat="45.03973" lon="1.04398">
        <ele>199.4</ele>
        <time>2022-08-25T10:25:05Z</time>
      </trkpt>
      <trkpt lat="45.03959" lon="1.04401">
        <ele>198.4</ele>
        <time>2022-08-25T10:25:08Z</time>
      </trkpt>
      <trkpt lat="45.03934" lon="1.044">
        <ele>197.2</ele>
        <time>2022-08-25T10:25:13Z</time>
      </trkpt>
      <trkpt lat="45.03924" lon="1.04395">
        <ele>197</ele>
        <time>2022-08-25T10:25:16Z</time>
      </trkpt>
      <trkpt lat="45.03912" lon="1.04373">
        <ele>196.2</ele>
        <time>2022-08-25T10:25:20Z</time>
      </trkpt>
      <trkpt lat="45.03907" lon="1.04362">
        <ele>194.6</ele>
        <time>2022-08-25T10:25:22Z</time>
      </trkpt>
      <trkpt lat="45.03901" lon="1.04345">
        <ele>193</ele>
        <time>2022-08-25T10:25:25Z</time>
      </trkpt>
      <trkpt lat="45.03897" lon="1.04325">
        <ele>192</ele>
        <time>2022-08-25T10:25:28Z</time>
      </trkpt>
      <trkpt lat="45.03896" lon="1.04312">
        <ele>190.8</ele>
        <time>2022-08-25T10:25:30Z</time>
      </trkpt>
      <trkpt lat="45.03895" lon="1.04301">
        <ele>189.4</ele>
        <time>2022-08-25T10:25:32Z</time>
      </trkpt>
      <trkpt lat="45.03895" lon="1.04292">
        <ele>188.2</ele>
        <time>2022-08-25T10:25:34Z</time>
      </trkpt>
      <trkpt lat="45.03895" lon="1.04283">
        <ele>187.2</ele>
        <time>2022-08-25T10:25:36Z</time>
      </trkpt>
      <trkpt lat="45.03894" lon="1.04274">
        <ele>185.8</ele>
        <time>2022-08-25T10:25:38Z</time>
      </trkpt>
      <trkpt lat="45.03891" lon="1.04266">
        <ele>184.2</ele>
        <time>2022-08-25T10:25:40Z</time>
      </trkpt>
      <trkpt lat="45.03889" lon="1.04261">
        <ele>183.2</ele>
        <time>2022-08-25T10:25:41Z</time>
      </trkpt>
      <trkpt lat="45.03884" lon="1.04252">
        <ele>181.6</ele>
        <time>2022-08-25T10:25:43Z</time>
      </trkpt>
      <trkpt lat="45.03879" lon="1.04246">
        <ele>180.4</ele>
        <time>2022-08-25T10:25:45Z</time>
      </trkpt>
      <trkpt lat="45.03874" lon="1.0424">
        <ele>179.2</ele>
        <time>2022-08-25T10:25:47Z</time>
      </trkpt>
      <trkpt lat="45.0387" lon="1.04235">
        <ele>178</ele>
        <time>2022-08-25T10:25:49Z</time>
      </trkpt>
      <trkpt lat="45.03866" lon="1.04228">
        <ele>176.8</ele>
        <time>2022-08-25T10:25:51Z</time>
      </trkpt>
      <trkpt lat="45.03862" lon="1.04223">
        <ele>175.6</ele>
        <time>2022-08-25T10:25:53Z</time>
      </trkpt>
      <trkpt lat="45.03858" lon="1.04215">
        <ele>174.4</ele>
        <time>2022-08-25T10:25:55Z</time>
      </trkpt>
      <trkpt lat="45.03856" lon="1.04205">
        <ele>172.8</ele>
        <time>2022-08-25T10:25:57Z</time>
      </trkpt>
      <trkpt lat="45.03853" lon="1.04195">
        <ele>171</ele>
        <time>2022-08-25T10:25:59Z</time>
      </trkpt>
      <trkpt lat="45.03849" lon="1.04187">
        <ele>169.6</ele>
        <time>2022-08-25T10:26:01Z</time>
      </trkpt>
      <trkpt lat="45.03845" lon="1.04177">
        <ele>167.8</ele>
        <time>2022-08-25T10:26:03Z</time>
      </trkpt>
      <trkpt lat="45.03842" lon="1.04171">
        <ele>166.8</ele>
        <time>2022-08-25T10:26:04Z</time>
      </trkpt>
      <trkpt lat="45.03841" lon="1.04166">
        <ele>166.2</ele>
        <time>2022-08-25T10:26:05Z</time>
      </trkpt>
      <trkpt lat="45.03837" lon="1.04156">
        <ele>164.6</ele>
        <time>2022-08-25T10:26:07Z</time>
      </trkpt>
      <trkpt lat="45.03835" lon="1.04145">
        <ele>163.2</ele>
        <time>2022-08-25T10:26:09Z</time>
      </trkpt>
      <trkpt lat="45.03833" lon="1.04137">
        <ele>161.6</ele>
        <time>2022-08-25T10:26:11Z</time>
      </trkpt>
      <trkpt lat="45.0383" lon="1.04127">
        <ele>160.4</ele>
        <time>2022-08-25T10:26:13Z</time>
      </trkpt>
      <trkpt lat="45.03826" lon="1.04116">
        <ele>158.6</ele>
        <time>2022-08-25T10:26:15Z</time>
      </trkpt>
      <trkpt lat="45.03822" lon="1.04107">
        <ele>157.4</ele>
        <time>2022-08-25T10:26:17Z</time>
      </trkpt>
      <trkpt lat="45.03818" lon="1.04098">
        <ele>155.8</ele>
        <time>2022-08-25T10:26:19Z</time>
      </trkpt>
      <trkpt lat="45.03813" lon="1.04089">
        <ele>154.6</ele>
        <time>2022-08-25T10:26:21Z</time>
      </trkpt>
      <trkpt lat="45.03807" lon="1.04079">
        <ele>153</ele>
        <time>2022-08-25T10:26:23Z</time>
      </trkpt>
      <trkpt lat="45.038" lon="1.0407">
        <ele>151.8</ele>
        <time>2022-08-25T10:26:25Z</time>
      </trkpt>
      <trkpt lat="45.03792" lon="1.0406">
        <ele>150.4</ele>
        <time>2022-08-25T10:26:27Z</time>
      </trkpt>
      <trkpt lat="45.03781" lon="1.04043">
        <ele>149.2</ele>
        <time>2022-08-25T10:26:30Z</time>
      </trkpt>
      <trkpt lat="45.03772" lon="1.04029">
        <ele>148</ele>
        <time>2022-08-25T10:26:33Z</time>
      </trkpt>
      <trkpt lat="45.03764" lon="1.04013">
        <ele>146.4</ele>
        <time>2022-08-25T10:26:36Z</time>
      </trkpt>
      <trkpt lat="45.03759" lon="1.04003">
        <ele>145</ele>
        <time>2022-08-25T10:26:38Z</time>
      </trkpt>
      <trkpt lat="45.03755" lon="1.03994">
        <ele>143.6</ele>
        <time>2022-08-25T10:26:40Z</time>
      </trkpt>
      <trkpt lat="45.0375" lon="1.03982">
        <ele>142.4</ele>
        <time>2022-08-25T10:26:42Z</time>
      </trkpt>
      <trkpt lat="45.03746" lon="1.03971">
        <ele>140.8</ele>
        <time>2022-08-25T10:26:44Z</time>
      </trkpt>
      <trkpt lat="45.03743" lon="1.03963">
        <ele>139.4</ele>
        <time>2022-08-25T10:26:46Z</time>
      </trkpt>
      <trkpt lat="45.03741" lon="1.03962">
        <ele>139</ele>
        <time>2022-08-25T10:26:47Z</time>
      </trkpt>
      <trkpt lat="45.03739" lon="1.03958">
        <ele>138.2</ele>
        <time>2022-08-25T10:27:04Z</time>
      </trkpt>
      <trkpt lat="45.03738" lon="1.03948">
        <ele>137</ele>
        <time>2022-08-25T10:27:07Z</time>
      </trkpt>
      <trkpt lat="45.03734" lon="1.03944">
        <ele>136.6</ele>
        <time>2022-08-25T10:27:09Z</time>
      </trkpt>
      <trkpt lat="45.03691" lon="1.03996">
        <ele>137.8</ele>
        <time>2022-08-25T10:27:32Z</time>
      </trkpt>
      <trkpt lat="45.03654" lon="1.04052">
        <ele>137.6</ele>
        <time>2022-08-25T10:27:48Z</time>
      </trkpt>
      <trkpt lat="45.03651" lon="1.04055">
        <ele>138</ele>
        <time>2022-08-25T10:27:49Z</time>
      </trkpt>
      <trkpt lat="45.03635" lon="1.0408">
        <ele>139.2</ele>
        <time>2022-08-25T10:28:00Z</time>
      </trkpt>
      <trkpt lat="45.03619" lon="1.04099">
        <ele>140</ele>
        <time>2022-08-25T10:28:14Z</time>
      </trkpt>
      <trkpt lat="45.03612" lon="1.04086">
        <ele>137.6</ele>
        <time>2022-08-25T10:28:18Z</time>
      </trkpt>
      <trkpt lat="45.03608" lon="1.04077">
        <ele>136.2</ele>
        <time>2022-08-25T10:28:20Z</time>
      </trkpt>
      <trkpt lat="45.03605" lon="1.04067">
        <ele>134.4</ele>
        <time>2022-08-25T10:28:22Z</time>
      </trkpt>
      <trkpt lat="45.03604" lon="1.04057">
        <ele>133.4</ele>
        <time>2022-08-25T10:28:24Z</time>
      </trkpt>
      <trkpt lat="45.03607" lon="1.04052">
        <ele>132.4</ele>
        <time>2022-08-25T10:28:26Z</time>
      </trkpt>
      <trkpt lat="45.03608" lon="1.0405">
        <ele>132</ele>
        <time>2022-08-25T10:28:27Z</time>
      </trkpt>
      <trkpt lat="45.03611" lon="1.04045">
        <ele>130.8</ele>
        <time>2022-08-25T10:28:31Z</time>
      </trkpt>
      <trkpt lat="45.03612" lon="1.04037">
        <ele>129.4</ele>
        <time>2022-08-25T10:28:36Z</time>
      </trkpt>
      <trkpt lat="45.0361" lon="1.04027">
        <ele>128.2</ele>
        <time>2022-08-25T10:28:39Z</time>
      </trkpt>
      <trkpt lat="45.03609" lon="1.04019">
        <ele>127.2</ele>
        <time>2022-08-25T10:28:41Z</time>
      </trkpt>
      <trkpt lat="45.03607" lon="1.04012">
        <ele>126</ele>
        <time>2022-08-25T10:28:43Z</time>
      </trkpt>
      <trkpt lat="45.03605" lon="1.04005">
        <ele>124.8</ele>
        <time>2022-08-25T10:28:45Z</time>
      </trkpt>
      <trkpt lat="45.03603" lon="1.03999">
        <ele>123.6</ele>
        <time>2022-08-25T10:28:49Z</time>
      </trkpt>
      <trkpt lat="45.03602" lon="1.03998">
        <ele>123.6</ele>
        <time>2022-08-25T10:28:50Z</time>
      </trkpt>
      <trkpt lat="45.03592" lon="1.04001">
        <ele>125</ele>
        <time>2022-08-25T10:29:08Z</time>
      </trkpt>
      <trkpt lat="45.03588" lon="1.04003">
        <ele>125</ele>
        <time>2022-08-25T10:29:10Z</time>
      </trkpt>
      <trkpt lat="45.03575" lon="1.04007">
        <ele>124</ele>
        <time>2022-08-25T10:29:17Z</time>
      </trkpt>
      <trkpt lat="45.03566" lon="1.04011">
        <ele>122.8</ele>
        <time>2022-08-25T10:29:21Z</time>
      </trkpt>
      <trkpt lat="45.03559" lon="1.04015">
        <ele>121.6</ele>
        <time>2022-08-25T10:29:24Z</time>
      </trkpt>
      <trkpt lat="45.03557" lon="1.04014">
        <ele>121.2</ele>
        <time>2022-08-25T10:29:25Z</time>
      </trkpt>
      <trkpt lat="45.03555" lon="1.04009">
        <ele>120</ele>
        <time>2022-08-25T10:29:27Z</time>
      </trkpt>
      <trkpt lat="45.03553" lon="1.04001">
        <ele>118.8</ele>
        <time>2022-08-25T10:29:29Z</time>
      </trkpt>
      <trkpt lat="45.03549" lon="1.03991">
        <ele>117.6</ele>
        <time>2022-08-25T10:29:31Z</time>
      </trkpt>
      <trkpt lat="45.03545" lon="1.03981">
        <ele>116.6</ele>
        <time>2022-08-25T10:29:33Z</time>
      </trkpt>
      <trkpt lat="45.03541" lon="1.03976">
        <ele>115.8</ele>
        <time>2022-08-25T10:29:35Z</time>
      </trkpt>
      <trkpt lat="45.03502" lon="1.04026">
        <ele>116.4</ele>
        <time>2022-08-25T10:29:50Z</time>
      </trkpt>
      <trkpt lat="45.03466" lon="1.04086">
        <ele>116</ele>
        <time>2022-08-25T10:30:05Z</time>
      </trkpt>
      <trkpt lat="45.03454" lon="1.0411">
        <ele>115.4</ele>
        <time>2022-08-25T10:30:10Z</time>
      </trkpt>
      <trkpt lat="45.03411" lon="1.04164">
        <ele>115.4</ele>
        <time>2022-08-25T10:30:26Z</time>
      </trkpt>
      <trkpt lat="45.03386" lon="1.04184">
        <ele>115.4</ele>
        <time>2022-08-25T10:30:34Z</time>
      </trkpt>
      <trkpt lat="45.03355" lon="1.04198">
        <ele>114.2</ele>
        <time>2022-08-25T10:30:40Z</time>
      </trkpt>
      <trkpt lat="45.03349" lon="1.04201">
        <ele>112.2</ele>
        <time>2022-08-25T10:30:41Z</time>
      </trkpt>
      <trkpt lat="45.03343" lon="1.04204">
        <ele>110.8</ele>
        <time>2022-08-25T10:30:42Z</time>
      </trkpt>
      <trkpt lat="45.03336" lon="1.04208">
        <ele>111.8</ele>
        <time>2022-08-25T10:30:43Z</time>
      </trkpt>
      <trkpt lat="45.033" lon="1.04228">
        <ele>110.2</ele>
        <time>2022-08-25T10:30:48Z</time>
      </trkpt>
      <trkpt lat="45.03285" lon="1.04236">
        <ele>111.8</ele>
        <time>2022-08-25T10:30:50Z</time>
      </trkpt>
      <trkpt lat="45.03269" lon="1.04246">
        <ele>110</ele>
        <time>2022-08-25T10:30:52Z</time>
      </trkpt>
      <trkpt lat="45.03253" lon="1.04255">
        <ele>108.8</ele>
        <time>2022-08-25T10:30:54Z</time>
      </trkpt>
      <trkpt lat="45.03221" lon="1.04275">
        <ele>107.6</ele>
        <time>2022-08-25T10:30:58Z</time>
      </trkpt>
      <trkpt lat="45.03205" lon="1.04286">
        <ele>106</ele>
        <time>2022-08-25T10:31:00Z</time>
      </trkpt>
      <trkpt lat="45.03163" lon="1.04314">
        <ele>104.6</ele>
        <time>2022-08-25T10:31:05Z</time>
      </trkpt>
      <trkpt lat="45.03143" lon="1.0433">
        <ele>102.4</ele>
        <time>2022-08-25T10:31:08Z</time>
      </trkpt>
      <trkpt lat="45.03129" lon="1.0434">
        <ele>100.6</ele>
        <time>2022-08-25T10:31:11Z</time>
      </trkpt>
      <trkpt lat="45.03117" lon="1.04344">
        <ele>99.4</ele>
        <time>2022-08-25T10:31:15Z</time>
      </trkpt>
      <trkpt lat="45.03115" lon="1.04344">
        <ele>99</ele>
        <time>2022-08-25T10:31:16Z</time>
      </trkpt>
      <trkpt lat="45.031" lon="1.04354">
        <ele>98.4</ele>
        <time>2022-08-25T10:31:20Z</time>
      </trkpt>
      <trkpt lat="45.0306" lon="1.04394">
        <ele>99.4</ele>
        <time>2022-08-25T10:31:28Z</time>
      </trkpt>
      <trkpt lat="45.03054" lon="1.044">
        <ele>100.4</ele>
        <time>2022-08-25T10:31:29Z</time>
      </trkpt>
      <trkpt lat="45.03023" lon="1.04434">
        <ele>99</ele>
        <time>2022-08-25T10:31:34Z</time>
      </trkpt>
      <trkpt lat="45.03017" lon="1.04441">
        <ele>98</ele>
        <time>2022-08-25T10:31:35Z</time>
      </trkpt>
      <trkpt lat="45.03011" lon="1.04449">
        <ele>97.8</ele>
        <time>2022-08-25T10:31:36Z</time>
      </trkpt>
      <trkpt lat="45.03006" lon="1.04457">
        <ele>96.8</ele>
        <time>2022-08-25T10:31:37Z</time>
      </trkpt>
      <trkpt lat="45.03" lon="1.04467">
        <ele>94.8</ele>
        <time>2022-08-25T10:31:38Z</time>
      </trkpt>
      <trkpt lat="45.02996" lon="1.04477">
        <ele>93.4</ele>
        <time>2022-08-25T10:31:39Z</time>
      </trkpt>
      <trkpt lat="45.02994" lon="1.04489">
        <ele>92.8</ele>
        <time>2022-08-25T10:31:40Z</time>
      </trkpt>
      <trkpt lat="45.02996" lon="1.04512">
        <ele>92.4</ele>
        <time>2022-08-25T10:31:42Z</time>
      </trkpt>
      <trkpt lat="45.03014" lon="1.04585">
        <ele>92.2</ele>
        <time>2022-08-25T10:31:49Z</time>
      </trkpt>
      <trkpt lat="45.03029" lon="1.04643">
        <ele>93.4</ele>
        <time>2022-08-25T10:31:56Z</time>
      </trkpt>
      <trkpt lat="45.03037" lon="1.04674">
        <ele>94.4</ele>
        <time>2022-08-25T10:32:01Z</time>
      </trkpt>
      <trkpt lat="45.03043" lon="1.04699">
        <ele>95.6</ele>
        <time>2022-08-25T10:32:08Z</time>
      </trkpt>
      <trkpt lat="45.03048" lon="1.04713">
        <ele>97</ele>
        <time>2022-08-25T10:32:12Z</time>
      </trkpt>
      <trkpt lat="45.03073" lon="1.0475">
        <ele>98</ele>
        <time>2022-08-25T10:32:24Z</time>
      </trkpt>
      <trkpt lat="45.03123" lon="1.04788">
        <ele>98.6</ele>
        <time>2022-08-25T10:32:43Z</time>
      </trkpt>
      <trkpt lat="45.03139" lon="1.04796">
        <ele>99</ele>
        <time>2022-08-25T10:32:49Z</time>
      </trkpt>
      <trkpt lat="45.03154" lon="1.04819">
        <ele>100.2</ele>
        <time>2022-08-25T10:33:00Z</time>
      </trkpt>
      <trkpt lat="45.03158" lon="1.04845">
        <ele>101.2</ele>
        <time>2022-08-25T10:33:09Z</time>
      </trkpt>
      <trkpt lat="45.03164" lon="1.0486">
        <ele>102.2</ele>
        <time>2022-08-25T10:33:15Z</time>
      </trkpt>
      <trkpt lat="45.03168" lon="1.04884">
        <ele>103.2</ele>
        <time>2022-08-25T10:33:23Z</time>
      </trkpt>
      <trkpt lat="45.03173" lon="1.04904">
        <ele>104.2</ele>
        <time>2022-08-25T10:33:30Z</time>
      </trkpt>
      <trkpt lat="45.03179" lon="1.04926">
        <ele>105.2</ele>
        <time>2022-08-25T10:33:38Z</time>
      </trkpt>
      <trkpt lat="45.03185" lon="1.0497">
        <ele>106.4</ele>
        <time>2022-08-25T10:33:53Z</time>
      </trkpt>
      <trkpt lat="45.03188" lon="1.04982">
        <ele>107.6</ele>
        <time>2022-08-25T10:33:58Z</time>
      </trkpt>
      <trkpt lat="45.03188" lon="1.04996">
        <ele>108.2</ele>
        <time>2022-08-25T10:34:03Z</time>
      </trkpt>
      <trkpt lat="45.03163" lon="1.05029">
        <ele>108.6</ele>
        <time>2022-08-25T10:34:16Z</time>
      </trkpt>
      <trkpt lat="45.0315" lon="1.05071">
        <ele>109.8</ele>
        <time>2022-08-25T10:34:30Z</time>
      </trkpt>
      <trkpt lat="45.03152" lon="1.05103">
        <ele>110.2</ele>
        <time>2022-08-25T10:34:55Z</time>
      </trkpt>
    </trkseg>
  </trk>
</gpx>